<?xml version="1.0" encoding="UTF-8" standalone="no" ?>
<gpx xmlns="http://www.topografix.com/GPX/1/1" xmlns:xsi="http://www.w3.org/2001/XMLSchema-instance" xsi:schemaLocation="http://www.topografix.com/GPX/1/1 http://www.topografix.com/GPX/1/1/gpx.xsd" version="1.1" creator="VisuGPX - https://www.visugpx.com">
  <metadata>
    <name>Funiculaire Lienz</name>
  </metadata>
  <trk>
    <name><![CDATA[Barèges Ascension]]></name>
    <trkseg>
      <trkpt lat="42.89364" lon="0.08086">
        <ele>1528.8000488281</ele>
        <time>2021-02-28T08:29:57.000Z</time>
      </trkpt>
      <trkpt lat="42.89358" lon="0.08084">
        <ele>1529.4000244141</ele>
        <time>2021-02-28T08:30:07.000Z</time>
      </trkpt>
      <trkpt lat="42.89355" lon="0.08083">
        <ele>1529.5999755859</ele>
        <time>2021-02-28T08:30:09.000Z</time>
      </trkpt>
      <trkpt lat="42.89354" lon="0.08083">
        <ele>1529.8000488281</ele>
        <time>2021-02-28T08:30:10.000Z</time>
      </trkpt>
      <trkpt lat="42.89351" lon="0.08079">
        <ele>1531</ele>
        <time>2021-02-28T08:30:16.000Z</time>
      </trkpt>
      <trkpt lat="42.89348" lon="0.08076">
        <ele>1532.1999511719</ele>
        <time>2021-02-28T08:30:21.000Z</time>
      </trkpt>
      <trkpt lat="42.89347" lon="0.08072">
        <ele>1533.1999511719</ele>
        <time>2021-02-28T08:30:26.000Z</time>
      </trkpt>
      <trkpt lat="42.89344" lon="0.08068">
        <ele>1534.4000244141</ele>
        <time>2021-02-28T08:30:33.000Z</time>
      </trkpt>
      <trkpt lat="42.89341" lon="0.08064">
        <ele>1535.4000244141</ele>
        <time>2021-02-28T08:30:38.000Z</time>
      </trkpt>
      <trkpt lat="42.89338" lon="0.08061">
        <ele>1536.5999755859</ele>
        <time>2021-02-28T08:30:43.000Z</time>
      </trkpt>
      <trkpt lat="42.89334" lon="0.08059">
        <ele>1537.5999755859</ele>
        <time>2021-02-28T08:30:48.000Z</time>
      </trkpt>
      <trkpt lat="42.89332" lon="0.08056">
        <ele>1538.8000488281</ele>
        <time>2021-02-28T08:30:54.000Z</time>
      </trkpt>
      <trkpt lat="42.89327" lon="0.08049">
        <ele>1540</ele>
        <time>2021-02-28T08:31:04.000Z</time>
      </trkpt>
      <trkpt lat="42.89323" lon="0.08044">
        <ele>1541</ele>
        <time>2021-02-28T08:31:12.000Z</time>
      </trkpt>
      <trkpt lat="42.89317" lon="0.08036">
        <ele>1542.1999511719</ele>
        <time>2021-02-28T08:31:23.000Z</time>
      </trkpt>
      <trkpt lat="42.89312" lon="0.08036">
        <ele>1543.4000244141</ele>
        <time>2021-02-28T08:31:31.000Z</time>
      </trkpt>
      <trkpt lat="42.89306" lon="0.08036">
        <ele>1544.5999755859</ele>
        <time>2021-02-28T08:31:39.000Z</time>
      </trkpt>
      <trkpt lat="42.89303" lon="0.08038">
        <ele>1545.5999755859</ele>
        <time>2021-02-28T08:31:44.000Z</time>
      </trkpt>
      <trkpt lat="42.89298" lon="0.08041">
        <ele>1546.8000488281</ele>
        <time>2021-02-28T08:31:50.000Z</time>
      </trkpt>
      <trkpt lat="42.89296" lon="0.08039">
        <ele>1548</ele>
        <time>2021-02-28T08:31:55.000Z</time>
      </trkpt>
      <trkpt lat="42.89292" lon="0.08038">
        <ele>1549.1999511719</ele>
        <time>2021-02-28T08:32:00.000Z</time>
      </trkpt>
      <trkpt lat="42.89287" lon="0.0804">
        <ele>1550.1999511719</ele>
        <time>2021-02-28T08:32:07.000Z</time>
      </trkpt>
      <trkpt lat="42.89284" lon="0.0804">
        <ele>1551.4000244141</ele>
        <time>2021-02-28T08:32:12.000Z</time>
      </trkpt>
      <trkpt lat="42.89281" lon="0.08042">
        <ele>1552.4000244141</ele>
        <time>2021-02-28T08:32:18.000Z</time>
      </trkpt>
      <trkpt lat="42.89277" lon="0.08045">
        <ele>1553.5999755859</ele>
        <time>2021-02-28T08:32:25.000Z</time>
      </trkpt>
      <trkpt lat="42.89271" lon="0.08045">
        <ele>1554.5999755859</ele>
        <time>2021-02-28T08:32:57.000Z</time>
      </trkpt>
      <trkpt lat="42.89268" lon="0.08046">
        <ele>1555.8000488281</ele>
        <time>2021-02-28T08:33:02.000Z</time>
      </trkpt>
      <trkpt lat="42.89265" lon="0.08048">
        <ele>1557</ele>
        <time>2021-02-28T08:33:08.000Z</time>
      </trkpt>
      <trkpt lat="42.89264" lon="0.08048">
        <ele>1557</ele>
        <time>2021-02-28T08:33:09.000Z</time>
      </trkpt>
      <trkpt lat="42.8926" lon="0.0805">
        <ele>1558</ele>
        <time>2021-02-28T08:33:15.000Z</time>
      </trkpt>
      <trkpt lat="42.89258" lon="0.08051">
        <ele>1558.4000244141</ele>
        <time>2021-02-28T08:33:17.000Z</time>
      </trkpt>
      <trkpt lat="42.89257" lon="0.08051">
        <ele>1559.1999511719</ele>
        <time>2021-02-28T08:33:21.000Z</time>
      </trkpt>
      <trkpt lat="42.89253" lon="0.08048">
        <ele>1560.1999511719</ele>
        <time>2021-02-28T08:33:30.000Z</time>
      </trkpt>
      <trkpt lat="42.89251" lon="0.08046">
        <ele>1561.1999511719</ele>
        <time>2021-02-28T08:33:35.000Z</time>
      </trkpt>
      <trkpt lat="42.89249" lon="0.08042">
        <ele>1562.4000244141</ele>
        <time>2021-02-28T08:33:41.000Z</time>
      </trkpt>
      <trkpt lat="42.89247" lon="0.08039">
        <ele>1563.4000244141</ele>
        <time>2021-02-28T08:33:47.000Z</time>
      </trkpt>
      <trkpt lat="42.89246" lon="0.08035">
        <ele>1564.5999755859</ele>
        <time>2021-02-28T08:33:54.000Z</time>
      </trkpt>
      <trkpt lat="42.89245" lon="0.08032">
        <ele>1565.5999755859</ele>
        <time>2021-02-28T08:34:11.000Z</time>
      </trkpt>
      <trkpt lat="42.89243" lon="0.0803">
        <ele>1566.5999755859</ele>
        <time>2021-02-28T08:34:21.000Z</time>
      </trkpt>
      <trkpt lat="42.89239" lon="0.08031">
        <ele>1567.5999755859</ele>
        <time>2021-02-28T08:34:26.000Z</time>
      </trkpt>
      <trkpt lat="42.89238" lon="0.08032">
        <ele>1567.8000488281</ele>
        <time>2021-02-28T08:34:27.000Z</time>
      </trkpt>
      <trkpt lat="42.89238" lon="0.08037">
        <ele>1568.8000488281</ele>
        <time>2021-02-28T08:34:32.000Z</time>
      </trkpt>
      <trkpt lat="42.89238" lon="0.08039">
        <ele>1569.8000488281</ele>
        <time>2021-02-28T08:34:39.000Z</time>
      </trkpt>
      <trkpt lat="42.89239" lon="0.08035">
        <ele>1568.8000488281</ele>
        <time>2021-02-28T08:34:51.000Z</time>
      </trkpt>
      <trkpt lat="42.89235" lon="0.08035">
        <ele>1569.8000488281</ele>
        <time>2021-02-28T08:35:19.000Z</time>
      </trkpt>
      <trkpt lat="42.89233" lon="0.08026">
        <ele>1571</ele>
        <time>2021-02-28T08:35:38.000Z</time>
      </trkpt>
      <trkpt lat="42.89231" lon="0.0802">
        <ele>1572.1999511719</ele>
        <time>2021-02-28T08:35:46.000Z</time>
      </trkpt>
      <trkpt lat="42.89229" lon="0.08018">
        <ele>1573.4000244141</ele>
        <time>2021-02-28T08:35:51.000Z</time>
      </trkpt>
      <trkpt lat="42.89227" lon="0.08014">
        <ele>1574.5999755859</ele>
        <time>2021-02-28T08:35:56.000Z</time>
      </trkpt>
      <trkpt lat="42.89225" lon="0.08013">
        <ele>1575.5999755859</ele>
        <time>2021-02-28T08:36:01.000Z</time>
      </trkpt>
      <trkpt lat="42.89222" lon="0.08015">
        <ele>1576.8000488281</ele>
        <time>2021-02-28T08:36:06.000Z</time>
      </trkpt>
      <trkpt lat="42.89219" lon="0.08016">
        <ele>1577.8000488281</ele>
        <time>2021-02-28T08:36:11.000Z</time>
      </trkpt>
      <trkpt lat="42.89217" lon="0.08013">
        <ele>1579</ele>
        <time>2021-02-28T08:36:16.000Z</time>
      </trkpt>
      <trkpt lat="42.89214" lon="0.08009">
        <ele>1580.1999511719</ele>
        <time>2021-02-28T08:36:24.000Z</time>
      </trkpt>
      <trkpt lat="42.89212" lon="0.0801">
        <ele>1581.1999511719</ele>
        <time>2021-02-28T08:36:29.000Z</time>
      </trkpt>
      <trkpt lat="42.8921" lon="0.08007">
        <ele>1582.1999511719</ele>
        <time>2021-02-28T08:36:34.000Z</time>
      </trkpt>
      <trkpt lat="42.89209" lon="0.08005">
        <ele>1583.1999511719</ele>
        <time>2021-02-28T08:36:39.000Z</time>
      </trkpt>
      <trkpt lat="42.89206" lon="0.08005">
        <ele>1584.4000244141</ele>
        <time>2021-02-28T08:36:44.000Z</time>
      </trkpt>
      <trkpt lat="42.89205" lon="0.08001">
        <ele>1585.5999755859</ele>
        <time>2021-02-28T08:36:49.000Z</time>
      </trkpt>
      <trkpt lat="42.89201" lon="0.08002">
        <ele>1586.8000488281</ele>
        <time>2021-02-28T08:36:56.000Z</time>
      </trkpt>
      <trkpt lat="42.89199" lon="0.08002">
        <ele>1588</ele>
        <time>2021-02-28T08:37:00.000Z</time>
      </trkpt>
      <trkpt lat="42.89199" lon="0.07999">
        <ele>1589</ele>
        <time>2021-02-28T08:37:05.000Z</time>
      </trkpt>
      <trkpt lat="42.89198" lon="0.07996">
        <ele>1590</ele>
        <time>2021-02-28T08:37:11.000Z</time>
      </trkpt>
      <trkpt lat="42.89197" lon="0.07991">
        <ele>1591.1999511719</ele>
        <time>2021-02-28T08:37:17.000Z</time>
      </trkpt>
      <trkpt lat="42.89196" lon="0.07987">
        <ele>1592.1999511719</ele>
        <time>2021-02-28T08:37:23.000Z</time>
      </trkpt>
      <trkpt lat="42.89196" lon="0.07982">
        <ele>1593.1999511719</ele>
        <time>2021-02-28T08:37:30.000Z</time>
      </trkpt>
      <trkpt lat="42.89195" lon="0.07976">
        <ele>1594.1999511719</ele>
        <time>2021-02-28T08:37:38.000Z</time>
      </trkpt>
      <trkpt lat="42.89194" lon="0.07971">
        <ele>1595.4000244141</ele>
        <time>2021-02-28T08:37:46.000Z</time>
      </trkpt>
      <trkpt lat="42.89193" lon="0.07968">
        <ele>1596.4000244141</ele>
        <time>2021-02-28T08:37:52.000Z</time>
      </trkpt>
      <trkpt lat="42.89191" lon="0.07963">
        <ele>1597.5999755859</ele>
        <time>2021-02-28T08:37:59.000Z</time>
      </trkpt>
      <trkpt lat="42.8919" lon="0.07959">
        <ele>1598.5999755859</ele>
        <time>2021-02-28T08:38:07.000Z</time>
      </trkpt>
      <trkpt lat="42.89188" lon="0.07959">
        <ele>1599.5999755859</ele>
        <time>2021-02-28T08:38:14.000Z</time>
      </trkpt>
      <trkpt lat="42.89186" lon="0.07956">
        <ele>1600.5999755859</ele>
        <time>2021-02-28T08:38:22.000Z</time>
      </trkpt>
      <trkpt lat="42.89185" lon="0.07953">
        <ele>1601.8000488281</ele>
        <time>2021-02-28T08:38:30.000Z</time>
      </trkpt>
      <trkpt lat="42.89183" lon="0.07952">
        <ele>1602.8000488281</ele>
        <time>2021-02-28T08:38:37.000Z</time>
      </trkpt>
      <trkpt lat="42.89181" lon="0.07949">
        <ele>1603.8000488281</ele>
        <time>2021-02-28T08:39:04.000Z</time>
      </trkpt>
      <trkpt lat="42.89178" lon="0.0795">
        <ele>1605</ele>
        <time>2021-02-28T08:39:09.000Z</time>
      </trkpt>
      <trkpt lat="42.89175" lon="0.07953">
        <ele>1606</ele>
        <time>2021-02-28T08:39:14.000Z</time>
      </trkpt>
      <trkpt lat="42.89172" lon="0.07955">
        <ele>1607.1999511719</ele>
        <time>2021-02-28T08:39:19.000Z</time>
      </trkpt>
      <trkpt lat="42.89169" lon="0.07957">
        <ele>1608.4000244141</ele>
        <time>2021-02-28T08:39:25.000Z</time>
      </trkpt>
      <trkpt lat="42.89165" lon="0.0796">
        <ele>1609.4000244141</ele>
        <time>2021-02-28T08:39:31.000Z</time>
      </trkpt>
      <trkpt lat="42.89162" lon="0.07962">
        <ele>1610.4000244141</ele>
        <time>2021-02-28T08:39:37.000Z</time>
      </trkpt>
      <trkpt lat="42.89161" lon="0.07964">
        <ele>1611.5999755859</ele>
        <time>2021-02-28T08:39:43.000Z</time>
      </trkpt>
      <trkpt lat="42.89157" lon="0.07967">
        <ele>1612.5999755859</ele>
        <time>2021-02-28T08:39:51.000Z</time>
      </trkpt>
      <trkpt lat="42.89154" lon="0.07969">
        <ele>1613.5999755859</ele>
        <time>2021-02-28T08:39:56.000Z</time>
      </trkpt>
      <trkpt lat="42.89152" lon="0.0797">
        <ele>1614.5999755859</ele>
        <time>2021-02-28T08:40:03.000Z</time>
      </trkpt>
      <trkpt lat="42.8915" lon="0.07969">
        <ele>1615.8000488281</ele>
        <time>2021-02-28T08:40:33.000Z</time>
      </trkpt>
      <trkpt lat="42.89147" lon="0.07969">
        <ele>1616.8000488281</ele>
        <time>2021-02-28T08:40:38.000Z</time>
      </trkpt>
      <trkpt lat="42.89143" lon="0.07972">
        <ele>1617.8000488281</ele>
        <time>2021-02-28T08:40:43.000Z</time>
      </trkpt>
      <trkpt lat="42.89139" lon="0.07976">
        <ele>1618.8000488281</ele>
        <time>2021-02-28T08:40:49.000Z</time>
      </trkpt>
      <trkpt lat="42.89138" lon="0.0798">
        <ele>1620</ele>
        <time>2021-02-28T08:40:54.000Z</time>
      </trkpt>
      <trkpt lat="42.89132" lon="0.07982">
        <ele>1621.1999511719</ele>
        <time>2021-02-28T08:41:01.000Z</time>
      </trkpt>
      <trkpt lat="42.89133" lon="0.07985">
        <ele>1622.1999511719</ele>
        <time>2021-02-28T08:41:06.000Z</time>
      </trkpt>
      <trkpt lat="42.89131" lon="0.07986">
        <ele>1623.4000244141</ele>
        <time>2021-02-28T08:41:11.000Z</time>
      </trkpt>
      <trkpt lat="42.89128" lon="0.07986">
        <ele>1624.4000244141</ele>
        <time>2021-02-28T08:41:19.000Z</time>
      </trkpt>
      <trkpt lat="42.89125" lon="0.07983">
        <ele>1625.5999755859</ele>
        <time>2021-02-28T08:41:25.000Z</time>
      </trkpt>
      <trkpt lat="42.89123" lon="0.07986">
        <ele>1626.8000488281</ele>
        <time>2021-02-28T08:41:31.000Z</time>
      </trkpt>
      <trkpt lat="42.89121" lon="0.07987">
        <ele>1627.8000488281</ele>
        <time>2021-02-28T08:41:37.000Z</time>
      </trkpt>
      <trkpt lat="42.89118" lon="0.07987">
        <ele>1628.8000488281</ele>
        <time>2021-02-28T08:41:45.000Z</time>
      </trkpt>
      <trkpt lat="42.89115" lon="0.07987">
        <ele>1630</ele>
        <time>2021-02-28T08:41:51.000Z</time>
      </trkpt>
      <trkpt lat="42.89112" lon="0.07987">
        <ele>1631</ele>
        <time>2021-02-28T08:41:57.000Z</time>
      </trkpt>
      <trkpt lat="42.89109" lon="0.07988">
        <ele>1632.1999511719</ele>
        <time>2021-02-28T08:42:03.000Z</time>
      </trkpt>
      <trkpt lat="42.89105" lon="0.07989">
        <ele>1633.1999511719</ele>
        <time>2021-02-28T08:42:10.000Z</time>
      </trkpt>
      <trkpt lat="42.89103" lon="0.0799">
        <ele>1634.1999511719</ele>
        <time>2021-02-28T08:42:17.000Z</time>
      </trkpt>
      <trkpt lat="42.89102" lon="0.07991">
        <ele>1635.4000244141</ele>
        <time>2021-02-28T08:42:23.000Z</time>
      </trkpt>
      <trkpt lat="42.89099" lon="0.07992">
        <ele>1636.5999755859</ele>
        <time>2021-02-28T08:42:35.000Z</time>
      </trkpt>
      <trkpt lat="42.89096" lon="0.07993">
        <ele>1637.5999755859</ele>
        <time>2021-02-28T08:42:41.000Z</time>
      </trkpt>
      <trkpt lat="42.89094" lon="0.07994">
        <ele>1638.8000488281</ele>
        <time>2021-02-28T08:42:46.000Z</time>
      </trkpt>
      <trkpt lat="42.89089" lon="0.07995">
        <ele>1639.8000488281</ele>
        <time>2021-02-28T08:42:53.000Z</time>
      </trkpt>
      <trkpt lat="42.89086" lon="0.07996">
        <ele>1641</ele>
        <time>2021-02-28T08:42:58.000Z</time>
      </trkpt>
      <trkpt lat="42.89084" lon="0.07996">
        <ele>1642</ele>
        <time>2021-02-28T08:43:03.000Z</time>
      </trkpt>
      <trkpt lat="42.8908" lon="0.07998">
        <ele>1643.1999511719</ele>
        <time>2021-02-28T08:43:10.000Z</time>
      </trkpt>
      <trkpt lat="42.89077" lon="0.07998">
        <ele>1644.1999511719</ele>
        <time>2021-02-28T08:43:15.000Z</time>
      </trkpt>
      <trkpt lat="42.89075" lon="0.07997">
        <ele>1645.4000244141</ele>
        <time>2021-02-28T08:43:20.000Z</time>
      </trkpt>
      <trkpt lat="42.89073" lon="0.07998">
        <ele>1646.4000244141</ele>
        <time>2021-02-28T08:43:26.000Z</time>
      </trkpt>
      <trkpt lat="42.8907" lon="0.07996">
        <ele>1647.4000244141</ele>
        <time>2021-02-28T08:43:31.000Z</time>
      </trkpt>
      <trkpt lat="42.89068" lon="0.07993">
        <ele>1648.5999755859</ele>
        <time>2021-02-28T08:43:36.000Z</time>
      </trkpt>
      <trkpt lat="42.89065" lon="0.07988">
        <ele>1649.8000488281</ele>
        <time>2021-02-28T08:43:43.000Z</time>
      </trkpt>
      <trkpt lat="42.89062" lon="0.07989">
        <ele>1651</ele>
        <time>2021-02-28T08:43:49.000Z</time>
      </trkpt>
      <trkpt lat="42.89059" lon="0.07989">
        <ele>1652.1999511719</ele>
        <time>2021-02-28T08:43:55.000Z</time>
      </trkpt>
      <trkpt lat="42.89055" lon="0.0799">
        <ele>1653.1999511719</ele>
        <time>2021-02-28T08:44:03.000Z</time>
      </trkpt>
      <trkpt lat="42.89053" lon="0.0799">
        <ele>1654.1999511719</ele>
        <time>2021-02-28T08:44:08.000Z</time>
      </trkpt>
      <trkpt lat="42.89048" lon="0.07989">
        <ele>1655.1999511719</ele>
        <time>2021-02-28T08:44:16.000Z</time>
      </trkpt>
      <trkpt lat="42.89047" lon="0.07984">
        <ele>1656.4000244141</ele>
        <time>2021-02-28T08:44:22.000Z</time>
      </trkpt>
      <trkpt lat="42.89046" lon="0.07981">
        <ele>1657.5999755859</ele>
        <time>2021-02-28T08:44:27.000Z</time>
      </trkpt>
      <trkpt lat="42.89044" lon="0.07981">
        <ele>1658.5999755859</ele>
        <time>2021-02-28T08:44:33.000Z</time>
      </trkpt>
      <trkpt lat="42.89042" lon="0.07981">
        <ele>1659.8000488281</ele>
        <time>2021-02-28T08:44:37.000Z</time>
      </trkpt>
      <trkpt lat="42.8904" lon="0.07978">
        <ele>1661</ele>
        <time>2021-02-28T08:44:42.000Z</time>
      </trkpt>
      <trkpt lat="42.89039" lon="0.07974">
        <ele>1662</ele>
        <time>2021-02-28T08:45:43.000Z</time>
      </trkpt>
      <trkpt lat="42.89041" lon="0.07974">
        <ele>1660.8000488281</ele>
        <time>2021-02-28T08:46:34.000Z</time>
      </trkpt>
      <trkpt lat="42.89041" lon="0.07973">
        <ele>1659.5999755859</ele>
        <time>2021-02-28T08:46:38.000Z</time>
      </trkpt>
      <trkpt lat="42.89042" lon="0.07974">
        <ele>1660.8000488281</ele>
        <time>2021-02-28T08:46:41.000Z</time>
      </trkpt>
      <trkpt lat="42.89039" lon="0.07972">
        <ele>1663</ele>
        <time>2021-02-28T08:46:56.000Z</time>
      </trkpt>
      <trkpt lat="42.8904" lon="0.07968">
        <ele>1664</ele>
        <time>2021-02-28T08:47:04.000Z</time>
      </trkpt>
      <trkpt lat="42.89041" lon="0.07971">
        <ele>1665</ele>
        <time>2021-02-28T08:47:31.000Z</time>
      </trkpt>
      <trkpt lat="42.8904" lon="0.07971">
        <ele>1666</ele>
        <time>2021-02-28T08:47:33.000Z</time>
      </trkpt>
      <trkpt lat="42.89038" lon="0.07969">
        <ele>1667.1999511719</ele>
        <time>2021-02-28T08:48:25.000Z</time>
      </trkpt>
      <trkpt lat="42.89038" lon="0.07966">
        <ele>1668.1999511719</ele>
        <time>2021-02-28T08:48:33.000Z</time>
      </trkpt>
      <trkpt lat="42.89037" lon="0.07965">
        <ele>1669.4000244141</ele>
        <time>2021-02-28T08:48:37.000Z</time>
      </trkpt>
      <trkpt lat="42.89036" lon="0.07963">
        <ele>1670.5999755859</ele>
        <time>2021-02-28T08:48:42.000Z</time>
      </trkpt>
      <trkpt lat="42.89033" lon="0.07966">
        <ele>1671.8000488281</ele>
        <time>2021-02-28T08:48:47.000Z</time>
      </trkpt>
      <trkpt lat="42.89029" lon="0.0797">
        <ele>1673</ele>
        <time>2021-02-28T08:48:52.000Z</time>
      </trkpt>
      <trkpt lat="42.89027" lon="0.07969">
        <ele>1674</ele>
        <time>2021-02-28T08:48:56.000Z</time>
      </trkpt>
      <trkpt lat="42.89025" lon="0.0797">
        <ele>1674.1999511719</ele>
        <time>2021-02-28T08:48:57.000Z</time>
      </trkpt>
      <trkpt lat="42.89023" lon="0.07971">
        <ele>1675.1999511719</ele>
        <time>2021-02-28T08:49:02.000Z</time>
      </trkpt>
      <trkpt lat="42.89021" lon="0.07971">
        <ele>1676.1999511719</ele>
        <time>2021-02-28T08:49:07.000Z</time>
      </trkpt>
      <trkpt lat="42.89019" lon="0.07973">
        <ele>1677.4000244141</ele>
        <time>2021-02-28T08:49:13.000Z</time>
      </trkpt>
      <trkpt lat="42.89017" lon="0.07972">
        <ele>1678.5999755859</ele>
        <time>2021-02-28T08:49:18.000Z</time>
      </trkpt>
      <trkpt lat="42.89016" lon="0.07967">
        <ele>1679.5999755859</ele>
        <time>2021-02-28T08:49:23.000Z</time>
      </trkpt>
      <trkpt lat="42.89015" lon="0.0796">
        <ele>1680.5999755859</ele>
        <time>2021-02-28T08:49:29.000Z</time>
      </trkpt>
      <trkpt lat="42.89014" lon="0.07955">
        <ele>1681.8000488281</ele>
        <time>2021-02-28T08:49:34.000Z</time>
      </trkpt>
      <trkpt lat="42.89014" lon="0.07952">
        <ele>1683</ele>
        <time>2021-02-28T08:49:39.000Z</time>
      </trkpt>
      <trkpt lat="42.89012" lon="0.07949">
        <ele>1684</ele>
        <time>2021-02-28T08:49:45.000Z</time>
      </trkpt>
      <trkpt lat="42.8901" lon="0.07948">
        <ele>1685</ele>
        <time>2021-02-28T08:49:51.000Z</time>
      </trkpt>
      <trkpt lat="42.89007" lon="0.07948">
        <ele>1686.1999511719</ele>
        <time>2021-02-28T08:49:56.000Z</time>
      </trkpt>
      <trkpt lat="42.89004" lon="0.07949">
        <ele>1687.1999511719</ele>
        <time>2021-02-28T08:50:02.000Z</time>
      </trkpt>
      <trkpt lat="42.89004" lon="0.07941">
        <ele>1688.4000244141</ele>
        <time>2021-02-28T08:50:07.000Z</time>
      </trkpt>
      <trkpt lat="42.89001" lon="0.07938">
        <ele>1689.4000244141</ele>
        <time>2021-02-28T08:50:14.000Z</time>
      </trkpt>
      <trkpt lat="42.89" lon="0.07936">
        <ele>1690.5999755859</ele>
        <time>2021-02-28T08:50:19.000Z</time>
      </trkpt>
      <trkpt lat="42.89001" lon="0.0793">
        <ele>1691.8000488281</ele>
        <time>2021-02-28T08:50:26.000Z</time>
      </trkpt>
      <trkpt lat="42.89" lon="0.07926">
        <ele>1692.8000488281</ele>
        <time>2021-02-28T08:50:31.000Z</time>
      </trkpt>
      <trkpt lat="42.88999" lon="0.07924">
        <ele>1693.8000488281</ele>
        <time>2021-02-28T08:50:35.000Z</time>
      </trkpt>
      <trkpt lat="42.88997" lon="0.0792">
        <ele>1695</ele>
        <time>2021-02-28T08:50:43.000Z</time>
      </trkpt>
      <trkpt lat="42.88994" lon="0.07917">
        <ele>1696.1999511719</ele>
        <time>2021-02-28T08:50:48.000Z</time>
      </trkpt>
      <trkpt lat="42.88993" lon="0.07913">
        <ele>1697.1999511719</ele>
        <time>2021-02-28T08:50:54.000Z</time>
      </trkpt>
      <trkpt lat="42.88993" lon="0.07908">
        <ele>1698.4000244141</ele>
        <time>2021-02-28T08:51:01.000Z</time>
      </trkpt>
      <trkpt lat="42.88994" lon="0.07903">
        <ele>1699.5999755859</ele>
        <time>2021-02-28T08:51:08.000Z</time>
      </trkpt>
      <trkpt lat="42.88992" lon="0.07898">
        <ele>1700.5999755859</ele>
        <time>2021-02-28T08:51:14.000Z</time>
      </trkpt>
      <trkpt lat="42.88991" lon="0.07892">
        <ele>1701.8000488281</ele>
        <time>2021-02-28T08:51:22.000Z</time>
      </trkpt>
      <trkpt lat="42.8899" lon="0.07886">
        <ele>1703</ele>
        <time>2021-02-28T08:51:29.000Z</time>
      </trkpt>
      <trkpt lat="42.8899" lon="0.07883">
        <ele>1704</ele>
        <time>2021-02-28T08:51:36.000Z</time>
      </trkpt>
      <trkpt lat="42.8899" lon="0.07878">
        <ele>1705</ele>
        <time>2021-02-28T08:51:47.000Z</time>
      </trkpt>
      <trkpt lat="42.88991" lon="0.07874">
        <ele>1706.1999511719</ele>
        <time>2021-02-28T08:51:55.000Z</time>
      </trkpt>
      <trkpt lat="42.8899" lon="0.07869">
        <ele>1707.1999511719</ele>
        <time>2021-02-28T08:52:01.000Z</time>
      </trkpt>
      <trkpt lat="42.88989" lon="0.07865">
        <ele>1708.1999511719</ele>
        <time>2021-02-28T08:52:06.000Z</time>
      </trkpt>
      <trkpt lat="42.88989" lon="0.07862">
        <ele>1709.4000244141</ele>
        <time>2021-02-28T08:52:13.000Z</time>
      </trkpt>
      <trkpt lat="42.88989" lon="0.07861">
        <ele>1710.4000244141</ele>
        <time>2021-02-28T08:52:19.000Z</time>
      </trkpt>
      <trkpt lat="42.88988" lon="0.07857">
        <ele>1711.4000244141</ele>
        <time>2021-02-28T08:52:26.000Z</time>
      </trkpt>
      <trkpt lat="42.88987" lon="0.07855">
        <ele>1712.5999755859</ele>
        <time>2021-02-28T08:52:33.000Z</time>
      </trkpt>
      <trkpt lat="42.88984" lon="0.07852">
        <ele>1713.5999755859</ele>
        <time>2021-02-28T08:52:40.000Z</time>
      </trkpt>
      <trkpt lat="42.88982" lon="0.07848">
        <ele>1714.5999755859</ele>
        <time>2021-02-28T08:52:45.000Z</time>
      </trkpt>
      <trkpt lat="42.88981" lon="0.07846">
        <ele>1715.8000488281</ele>
        <time>2021-02-28T08:52:52.000Z</time>
      </trkpt>
      <trkpt lat="42.8898" lon="0.07843">
        <ele>1716.8000488281</ele>
        <time>2021-02-28T08:52:58.000Z</time>
      </trkpt>
      <trkpt lat="42.88978" lon="0.07838">
        <ele>1718</ele>
        <time>2021-02-28T08:53:06.000Z</time>
      </trkpt>
      <trkpt lat="42.88976" lon="0.07834">
        <ele>1719</ele>
        <time>2021-02-28T08:53:14.000Z</time>
      </trkpt>
      <trkpt lat="42.88974" lon="0.0783">
        <ele>1720</ele>
        <time>2021-02-28T08:53:21.000Z</time>
      </trkpt>
      <trkpt lat="42.88973" lon="0.07826">
        <ele>1721</ele>
        <time>2021-02-28T08:53:28.000Z</time>
      </trkpt>
      <trkpt lat="42.88971" lon="0.07821">
        <ele>1722.1999511719</ele>
        <time>2021-02-28T08:53:35.000Z</time>
      </trkpt>
      <trkpt lat="42.88969" lon="0.07819">
        <ele>1723.1999511719</ele>
        <time>2021-02-28T08:53:41.000Z</time>
      </trkpt>
      <trkpt lat="42.88968" lon="0.07816">
        <ele>1724.1999511719</ele>
        <time>2021-02-28T08:53:46.000Z</time>
      </trkpt>
      <trkpt lat="42.88965" lon="0.07814">
        <ele>1725.1999511719</ele>
        <time>2021-02-28T08:53:53.000Z</time>
      </trkpt>
      <trkpt lat="42.88963" lon="0.07812">
        <ele>1726.4000244141</ele>
        <time>2021-02-28T08:54:00.000Z</time>
      </trkpt>
      <trkpt lat="42.88958" lon="0.07809">
        <ele>1727.4000244141</ele>
        <time>2021-02-28T08:54:08.000Z</time>
      </trkpt>
      <trkpt lat="42.88953" lon="0.0781">
        <ele>1728.4000244141</ele>
        <time>2021-02-28T08:54:15.000Z</time>
      </trkpt>
      <trkpt lat="42.88949" lon="0.07807">
        <ele>1729.4000244141</ele>
        <time>2021-02-28T08:54:23.000Z</time>
      </trkpt>
      <trkpt lat="42.88942" lon="0.07803">
        <ele>1730.4000244141</ele>
        <time>2021-02-28T08:54:39.000Z</time>
      </trkpt>
      <trkpt lat="42.88938" lon="0.07801">
        <ele>1731.5999755859</ele>
        <time>2021-02-28T08:54:46.000Z</time>
      </trkpt>
      <trkpt lat="42.88935" lon="0.07801">
        <ele>1732.5999755859</ele>
        <time>2021-02-28T08:54:53.000Z</time>
      </trkpt>
      <trkpt lat="42.8893" lon="0.07796">
        <ele>1733.8000488281</ele>
        <time>2021-02-28T08:55:03.000Z</time>
      </trkpt>
      <trkpt lat="42.88926" lon="0.07796">
        <ele>1734.8000488281</ele>
        <time>2021-02-28T08:55:11.000Z</time>
      </trkpt>
      <trkpt lat="42.88921" lon="0.07793">
        <ele>1736</ele>
        <time>2021-02-28T08:55:18.000Z</time>
      </trkpt>
      <trkpt lat="42.88915" lon="0.0779">
        <ele>1737</ele>
        <time>2021-02-28T08:55:28.000Z</time>
      </trkpt>
      <trkpt lat="42.8891" lon="0.07791">
        <ele>1738.1999511719</ele>
        <time>2021-02-28T08:55:35.000Z</time>
      </trkpt>
      <trkpt lat="42.88906" lon="0.0779">
        <ele>1739.1999511719</ele>
        <time>2021-02-28T08:55:42.000Z</time>
      </trkpt>
      <trkpt lat="42.88903" lon="0.07788">
        <ele>1740.4000244141</ele>
        <time>2021-02-28T08:55:48.000Z</time>
      </trkpt>
      <trkpt lat="42.88901" lon="0.07784">
        <ele>1741.4000244141</ele>
        <time>2021-02-28T08:55:54.000Z</time>
      </trkpt>
      <trkpt lat="42.88897" lon="0.07784">
        <ele>1742.4000244141</ele>
        <time>2021-02-28T08:56:00.000Z</time>
      </trkpt>
      <trkpt lat="42.88893" lon="0.07785">
        <ele>1743.5999755859</ele>
        <time>2021-02-28T08:56:08.000Z</time>
      </trkpt>
      <trkpt lat="42.8889" lon="0.07783">
        <ele>1744.5999755859</ele>
        <time>2021-02-28T08:56:14.000Z</time>
      </trkpt>
      <trkpt lat="42.88887" lon="0.0778">
        <ele>1745.8000488281</ele>
        <time>2021-02-28T08:56:23.000Z</time>
      </trkpt>
      <trkpt lat="42.88881" lon="0.07779">
        <ele>1747</ele>
        <time>2021-02-28T08:56:32.000Z</time>
      </trkpt>
      <trkpt lat="42.88877" lon="0.07777">
        <ele>1748</ele>
        <time>2021-02-28T08:56:41.000Z</time>
      </trkpt>
      <trkpt lat="42.88874" lon="0.07775">
        <ele>1749</ele>
        <time>2021-02-28T08:56:47.000Z</time>
      </trkpt>
      <trkpt lat="42.8887" lon="0.07774">
        <ele>1750.1999511719</ele>
        <time>2021-02-28T08:56:53.000Z</time>
      </trkpt>
      <trkpt lat="42.88865" lon="0.07772">
        <ele>1751.1999511719</ele>
        <time>2021-02-28T08:57:00.000Z</time>
      </trkpt>
      <trkpt lat="42.88862" lon="0.0777">
        <ele>1752.4000244141</ele>
        <time>2021-02-28T08:57:07.000Z</time>
      </trkpt>
      <trkpt lat="42.8886" lon="0.07769">
        <ele>1753.4000244141</ele>
        <time>2021-02-28T08:57:12.000Z</time>
      </trkpt>
      <trkpt lat="42.88857" lon="0.07763">
        <ele>1754.5999755859</ele>
        <time>2021-02-28T08:57:22.000Z</time>
      </trkpt>
      <trkpt lat="42.88855" lon="0.07762">
        <ele>1755.5999755859</ele>
        <time>2021-02-28T08:57:27.000Z</time>
      </trkpt>
      <trkpt lat="42.88853" lon="0.07762">
        <ele>1756.8000488281</ele>
        <time>2021-02-28T08:57:32.000Z</time>
      </trkpt>
      <trkpt lat="42.88849" lon="0.0776">
        <ele>1757.8000488281</ele>
        <time>2021-02-28T08:57:38.000Z</time>
      </trkpt>
      <trkpt lat="42.88846" lon="0.0776">
        <ele>1759</ele>
        <time>2021-02-28T08:57:44.000Z</time>
      </trkpt>
      <trkpt lat="42.88845" lon="0.07759">
        <ele>1760</ele>
        <time>2021-02-28T08:57:50.000Z</time>
      </trkpt>
      <trkpt lat="42.88842" lon="0.07756">
        <ele>1761</ele>
        <time>2021-02-28T08:58:11.000Z</time>
      </trkpt>
      <trkpt lat="42.88839" lon="0.07758">
        <ele>1761.5999755859</ele>
        <time>2021-02-28T08:58:15.000Z</time>
      </trkpt>
      <trkpt lat="42.88837" lon="0.07759">
        <ele>1762</ele>
        <time>2021-02-28T08:58:17.000Z</time>
      </trkpt>
      <trkpt lat="42.88833" lon="0.07759">
        <ele>1763.1999511719</ele>
        <time>2021-02-28T08:58:23.000Z</time>
      </trkpt>
      <trkpt lat="42.88829" lon="0.07759">
        <ele>1764.1999511719</ele>
        <time>2021-02-28T08:58:30.000Z</time>
      </trkpt>
      <trkpt lat="42.88825" lon="0.07759">
        <ele>1765.1999511719</ele>
        <time>2021-02-28T08:58:41.000Z</time>
      </trkpt>
      <trkpt lat="42.8882" lon="0.07759">
        <ele>1766.1999511719</ele>
        <time>2021-02-28T08:58:47.000Z</time>
      </trkpt>
      <trkpt lat="42.88812" lon="0.07758">
        <ele>1767.1999511719</ele>
        <time>2021-02-28T08:58:58.000Z</time>
      </trkpt>
      <trkpt lat="42.88809" lon="0.07758">
        <ele>1767.5999755859</ele>
        <time>2021-02-28T08:59:02.000Z</time>
      </trkpt>
      <trkpt lat="42.88801" lon="0.07757">
        <ele>1768.1999511719</ele>
        <time>2021-02-28T08:59:14.000Z</time>
      </trkpt>
      <trkpt lat="42.88791" lon="0.0776">
        <ele>1769.4000244141</ele>
        <time>2021-02-28T08:59:27.000Z</time>
      </trkpt>
      <trkpt lat="42.88783" lon="0.07763">
        <ele>1770.4000244141</ele>
        <time>2021-02-28T08:59:38.000Z</time>
      </trkpt>
      <trkpt lat="42.88778" lon="0.07766">
        <ele>1771.4000244141</ele>
        <time>2021-02-28T08:59:49.000Z</time>
      </trkpt>
      <trkpt lat="42.88776" lon="0.07766">
        <ele>1771.5999755859</ele>
        <time>2021-02-28T08:59:53.000Z</time>
      </trkpt>
      <trkpt lat="42.8877" lon="0.07764">
        <ele>1772.4000244141</ele>
        <time>2021-02-28T09:00:03.000Z</time>
      </trkpt>
      <trkpt lat="42.88762" lon="0.07764">
        <ele>1773.5999755859</ele>
        <time>2021-02-28T09:00:16.000Z</time>
      </trkpt>
      <trkpt lat="42.88756" lon="0.07765">
        <ele>1774.5999755859</ele>
        <time>2021-02-28T09:00:25.000Z</time>
      </trkpt>
      <trkpt lat="42.88752" lon="0.07767">
        <ele>1775.5999755859</ele>
        <time>2021-02-28T09:00:31.000Z</time>
      </trkpt>
      <trkpt lat="42.8875" lon="0.07765">
        <ele>1776.8000488281</ele>
        <time>2021-02-28T09:00:39.000Z</time>
      </trkpt>
      <trkpt lat="42.88747" lon="0.07763">
        <ele>1777.8000488281</ele>
        <time>2021-02-28T09:00:48.000Z</time>
      </trkpt>
      <trkpt lat="42.88743" lon="0.07762">
        <ele>1779</ele>
        <time>2021-02-28T09:00:56.000Z</time>
      </trkpt>
      <trkpt lat="42.88738" lon="0.07764">
        <ele>1780</ele>
        <time>2021-02-28T09:01:03.000Z</time>
      </trkpt>
      <trkpt lat="42.88732" lon="0.07766">
        <ele>1781.1999511719</ele>
        <time>2021-02-28T09:01:12.000Z</time>
      </trkpt>
      <trkpt lat="42.88728" lon="0.07765">
        <ele>1782.1999511719</ele>
        <time>2021-02-28T09:01:18.000Z</time>
      </trkpt>
      <trkpt lat="42.88728" lon="0.07765">
        <ele>1782.4000244141</ele>
        <time>2021-02-28T09:01:19.000Z</time>
      </trkpt>
      <trkpt lat="42.88726" lon="0.07763">
        <ele>1783.4000244141</ele>
        <time>2021-02-28T09:01:26.000Z</time>
      </trkpt>
      <trkpt lat="42.88722" lon="0.07764">
        <ele>1784.4000244141</ele>
        <time>2021-02-28T09:01:33.000Z</time>
      </trkpt>
      <trkpt lat="42.88722" lon="0.07763">
        <ele>1785.4000244141</ele>
        <time>2021-02-28T09:01:39.000Z</time>
      </trkpt>
      <trkpt lat="42.8872" lon="0.07761">
        <ele>1786.5999755859</ele>
        <time>2021-02-28T09:01:45.000Z</time>
      </trkpt>
      <trkpt lat="42.88718" lon="0.07759">
        <ele>1787.5999755859</ele>
        <time>2021-02-28T09:01:52.000Z</time>
      </trkpt>
      <trkpt lat="42.88715" lon="0.07758">
        <ele>1788.8000488281</ele>
        <time>2021-02-28T09:01:57.000Z</time>
      </trkpt>
      <trkpt lat="42.88712" lon="0.07756">
        <ele>1789.8000488281</ele>
        <time>2021-02-28T09:02:04.000Z</time>
      </trkpt>
      <trkpt lat="42.88711" lon="0.07751">
        <ele>1791</ele>
        <time>2021-02-28T09:02:14.000Z</time>
      </trkpt>
      <trkpt lat="42.88712" lon="0.07743">
        <ele>1792</ele>
        <time>2021-02-28T09:02:23.000Z</time>
      </trkpt>
      <trkpt lat="42.88712" lon="0.07739">
        <ele>1793.1999511719</ele>
        <time>2021-02-28T09:02:30.000Z</time>
      </trkpt>
      <trkpt lat="42.88713" lon="0.07735">
        <ele>1794.1999511719</ele>
        <time>2021-02-28T09:02:36.000Z</time>
      </trkpt>
      <trkpt lat="42.88713" lon="0.07731">
        <ele>1795.4000244141</ele>
        <time>2021-02-28T09:02:43.000Z</time>
      </trkpt>
      <trkpt lat="42.88713" lon="0.07728">
        <ele>1796.4000244141</ele>
        <time>2021-02-28T09:02:49.000Z</time>
      </trkpt>
      <trkpt lat="42.88711" lon="0.07728">
        <ele>1797.4000244141</ele>
        <time>2021-02-28T09:03:02.000Z</time>
      </trkpt>
      <trkpt lat="42.88709" lon="0.0773">
        <ele>1798.4000244141</ele>
        <time>2021-02-28T09:03:10.000Z</time>
      </trkpt>
      <trkpt lat="42.88703" lon="0.07735">
        <ele>1799.4000244141</ele>
        <time>2021-02-28T09:03:24.000Z</time>
      </trkpt>
      <trkpt lat="42.887" lon="0.07736">
        <ele>1800.5999755859</ele>
        <time>2021-02-28T09:03:30.000Z</time>
      </trkpt>
      <trkpt lat="42.88699" lon="0.07735">
        <ele>1801.5999755859</ele>
        <time>2021-02-28T09:03:37.000Z</time>
      </trkpt>
      <trkpt lat="42.88696" lon="0.07737">
        <ele>1802.5999755859</ele>
        <time>2021-02-28T09:03:45.000Z</time>
      </trkpt>
      <trkpt lat="42.88696" lon="0.07736">
        <ele>1803.8000488281</ele>
        <time>2021-02-28T09:03:52.000Z</time>
      </trkpt>
      <trkpt lat="42.88694" lon="0.07729">
        <ele>1804.8000488281</ele>
        <time>2021-02-28T09:04:54.000Z</time>
      </trkpt>
      <trkpt lat="42.88694" lon="0.07727">
        <ele>1806</ele>
        <time>2021-02-28T09:05:06.000Z</time>
      </trkpt>
      <trkpt lat="42.88694" lon="0.07728">
        <ele>1807</ele>
        <time>2021-02-28T09:05:10.000Z</time>
      </trkpt>
      <trkpt lat="42.8869" lon="0.07728">
        <ele>1807.8000488281</ele>
        <time>2021-02-28T09:05:30.000Z</time>
      </trkpt>
      <trkpt lat="42.88689" lon="0.07729">
        <ele>1808</ele>
        <time>2021-02-28T09:05:32.000Z</time>
      </trkpt>
      <trkpt lat="42.88684" lon="0.07735">
        <ele>1809</ele>
        <time>2021-02-28T09:05:38.000Z</time>
      </trkpt>
      <trkpt lat="42.88682" lon="0.07736">
        <ele>1809.5999755859</ele>
        <time>2021-02-28T09:05:41.000Z</time>
      </trkpt>
      <trkpt lat="42.88682" lon="0.07735">
        <ele>1810.1999511719</ele>
        <time>2021-02-28T09:05:44.000Z</time>
      </trkpt>
      <trkpt lat="42.88677" lon="0.07739">
        <ele>1811.4000244141</ele>
        <time>2021-02-28T09:05:50.000Z</time>
      </trkpt>
      <trkpt lat="42.88675" lon="0.07739">
        <ele>1812.5999755859</ele>
        <time>2021-02-28T09:05:56.000Z</time>
      </trkpt>
      <trkpt lat="42.88674" lon="0.07737">
        <ele>1813.8000488281</ele>
        <time>2021-02-28T09:06:00.000Z</time>
      </trkpt>
      <trkpt lat="42.88672" lon="0.07737">
        <ele>1814.8000488281</ele>
        <time>2021-02-28T09:06:04.000Z</time>
      </trkpt>
      <trkpt lat="42.88669" lon="0.07737">
        <ele>1816</ele>
        <time>2021-02-28T09:06:09.000Z</time>
      </trkpt>
      <trkpt lat="42.88667" lon="0.07737">
        <ele>1817</ele>
        <time>2021-02-28T09:06:14.000Z</time>
      </trkpt>
      <trkpt lat="42.88664" lon="0.07738">
        <ele>1818</ele>
        <time>2021-02-28T09:06:19.000Z</time>
      </trkpt>
      <trkpt lat="42.88663" lon="0.07736">
        <ele>1819</ele>
        <time>2021-02-28T09:06:24.000Z</time>
      </trkpt>
      <trkpt lat="42.88664" lon="0.07731">
        <ele>1820.1999511719</ele>
        <time>2021-02-28T09:06:32.000Z</time>
      </trkpt>
      <trkpt lat="42.88663" lon="0.07727">
        <ele>1821.1999511719</ele>
        <time>2021-02-28T09:06:37.000Z</time>
      </trkpt>
      <trkpt lat="42.88662" lon="0.07724">
        <ele>1822.1999511719</ele>
        <time>2021-02-28T09:06:42.000Z</time>
      </trkpt>
      <trkpt lat="42.88661" lon="0.07722">
        <ele>1823.4000244141</ele>
        <time>2021-02-28T09:06:46.000Z</time>
      </trkpt>
      <trkpt lat="42.88663" lon="0.07716">
        <ele>1824.5999755859</ele>
        <time>2021-02-28T09:07:04.000Z</time>
      </trkpt>
      <trkpt lat="42.88662" lon="0.07712">
        <ele>1825.5999755859</ele>
        <time>2021-02-28T09:07:10.000Z</time>
      </trkpt>
      <trkpt lat="42.88661" lon="0.07712">
        <ele>1826.5999755859</ele>
        <time>2021-02-28T09:07:16.000Z</time>
      </trkpt>
      <trkpt lat="42.88656" lon="0.07716">
        <ele>1827.5999755859</ele>
        <time>2021-02-28T09:07:26.000Z</time>
      </trkpt>
      <trkpt lat="42.88655" lon="0.07716">
        <ele>1828.5999755859</ele>
        <time>2021-02-28T09:07:31.000Z</time>
      </trkpt>
      <trkpt lat="42.88653" lon="0.07715">
        <ele>1829.5999755859</ele>
        <time>2021-02-28T09:07:36.000Z</time>
      </trkpt>
      <trkpt lat="42.88651" lon="0.07715">
        <ele>1830.5999755859</ele>
        <time>2021-02-28T09:07:40.000Z</time>
      </trkpt>
      <trkpt lat="42.88646" lon="0.07715">
        <ele>1831.8000488281</ele>
        <time>2021-02-28T09:07:46.000Z</time>
      </trkpt>
      <trkpt lat="42.88644" lon="0.07708">
        <ele>1832.8000488281</ele>
        <time>2021-02-28T09:07:53.000Z</time>
      </trkpt>
      <trkpt lat="42.88645" lon="0.07702">
        <ele>1833.1999511719</ele>
        <time>2021-02-28T09:08:17.000Z</time>
      </trkpt>
      <trkpt lat="42.88644" lon="0.07698">
        <ele>1834</ele>
        <time>2021-02-28T09:08:23.000Z</time>
      </trkpt>
      <trkpt lat="42.88643" lon="0.07694">
        <ele>1835</ele>
        <time>2021-02-28T09:08:29.000Z</time>
      </trkpt>
      <trkpt lat="42.88644" lon="0.0769">
        <ele>1836</ele>
        <time>2021-02-28T09:08:36.000Z</time>
      </trkpt>
      <trkpt lat="42.88647" lon="0.07688">
        <ele>1837.1999511719</ele>
        <time>2021-02-28T09:08:43.000Z</time>
      </trkpt>
      <trkpt lat="42.88649" lon="0.07682">
        <ele>1838.4000244141</ele>
        <time>2021-02-28T09:09:09.000Z</time>
      </trkpt>
      <trkpt lat="42.88652" lon="0.07681">
        <ele>1839.4000244141</ele>
        <time>2021-02-28T09:09:28.000Z</time>
      </trkpt>
      <trkpt lat="42.88654" lon="0.07677">
        <ele>1840.5999755859</ele>
        <time>2021-02-28T09:09:33.000Z</time>
      </trkpt>
      <trkpt lat="42.88656" lon="0.07674">
        <ele>1841.5999755859</ele>
        <time>2021-02-28T09:09:38.000Z</time>
      </trkpt>
      <trkpt lat="42.88657" lon="0.07669">
        <ele>1842.8000488281</ele>
        <time>2021-02-28T09:09:44.000Z</time>
      </trkpt>
      <trkpt lat="42.88657" lon="0.07666">
        <ele>1843.8000488281</ele>
        <time>2021-02-28T09:09:50.000Z</time>
      </trkpt>
      <trkpt lat="42.88658" lon="0.07661">
        <ele>1845</ele>
        <time>2021-02-28T09:09:56.000Z</time>
      </trkpt>
      <trkpt lat="42.8866" lon="0.07655">
        <ele>1846.1999511719</ele>
        <time>2021-02-28T09:10:06.000Z</time>
      </trkpt>
      <trkpt lat="42.88662" lon="0.07649">
        <ele>1847.1999511719</ele>
        <time>2021-02-28T09:10:13.000Z</time>
      </trkpt>
      <trkpt lat="42.88664" lon="0.07645">
        <ele>1848.4000244141</ele>
        <time>2021-02-28T09:10:19.000Z</time>
      </trkpt>
      <trkpt lat="42.88665" lon="0.0764">
        <ele>1849.4000244141</ele>
        <time>2021-02-28T09:10:27.000Z</time>
      </trkpt>
      <trkpt lat="42.88666" lon="0.07636">
        <ele>1850.5999755859</ele>
        <time>2021-02-28T09:10:33.000Z</time>
      </trkpt>
      <trkpt lat="42.88668" lon="0.0763">
        <ele>1851.5999755859</ele>
        <time>2021-02-28T09:10:40.000Z</time>
      </trkpt>
      <trkpt lat="42.88669" lon="0.07625">
        <ele>1852.8000488281</ele>
        <time>2021-02-28T09:10:48.000Z</time>
      </trkpt>
      <trkpt lat="42.8867" lon="0.07621">
        <ele>1853.8000488281</ele>
        <time>2021-02-28T09:10:54.000Z</time>
      </trkpt>
      <trkpt lat="42.88671" lon="0.07619">
        <ele>1855</ele>
        <time>2021-02-28T09:10:59.000Z</time>
      </trkpt>
      <trkpt lat="42.88672" lon="0.07614">
        <ele>1856</ele>
        <time>2021-02-28T09:11:06.000Z</time>
      </trkpt>
      <trkpt lat="42.88672" lon="0.07612">
        <ele>1857</ele>
        <time>2021-02-28T09:11:11.000Z</time>
      </trkpt>
      <trkpt lat="42.88673" lon="0.07604">
        <ele>1858</ele>
        <time>2021-02-28T09:11:19.000Z</time>
      </trkpt>
      <trkpt lat="42.88675" lon="0.07599">
        <ele>1859</ele>
        <time>2021-02-28T09:11:27.000Z</time>
      </trkpt>
      <trkpt lat="42.88676" lon="0.07595">
        <ele>1860</ele>
        <time>2021-02-28T09:11:32.000Z</time>
      </trkpt>
      <trkpt lat="42.88676" lon="0.07593">
        <ele>1860.1999511719</ele>
        <time>2021-02-28T09:11:34.000Z</time>
      </trkpt>
      <trkpt lat="42.88674" lon="0.07589">
        <ele>1861.1999511719</ele>
        <time>2021-02-28T09:11:40.000Z</time>
      </trkpt>
      <trkpt lat="42.88672" lon="0.07584">
        <ele>1862.4000244141</ele>
        <time>2021-02-28T09:11:48.000Z</time>
      </trkpt>
      <trkpt lat="42.88671" lon="0.07582">
        <ele>1863.4000244141</ele>
        <time>2021-02-28T09:11:54.000Z</time>
      </trkpt>
      <trkpt lat="42.8867" lon="0.07578">
        <ele>1864.5999755859</ele>
        <time>2021-02-28T09:12:01.000Z</time>
      </trkpt>
      <trkpt lat="42.88669" lon="0.07574">
        <ele>1865.5999755859</ele>
        <time>2021-02-28T09:12:08.000Z</time>
      </trkpt>
      <trkpt lat="42.88668" lon="0.0757">
        <ele>1866.8000488281</ele>
        <time>2021-02-28T09:12:15.000Z</time>
      </trkpt>
      <trkpt lat="42.88666" lon="0.07567">
        <ele>1867.8000488281</ele>
        <time>2021-02-28T09:12:20.000Z</time>
      </trkpt>
      <trkpt lat="42.88665" lon="0.07561">
        <ele>1868.8000488281</ele>
        <time>2021-02-28T09:12:27.000Z</time>
      </trkpt>
      <trkpt lat="42.88662" lon="0.07557">
        <ele>1869.8000488281</ele>
        <time>2021-02-28T09:12:33.000Z</time>
      </trkpt>
      <trkpt lat="42.88659" lon="0.07552">
        <ele>1871</ele>
        <time>2021-02-28T09:12:41.000Z</time>
      </trkpt>
      <trkpt lat="42.88657" lon="0.07551">
        <ele>1872</ele>
        <time>2021-02-28T09:12:46.000Z</time>
      </trkpt>
      <trkpt lat="42.88653" lon="0.07547">
        <ele>1873.1999511719</ele>
        <time>2021-02-28T09:12:54.000Z</time>
      </trkpt>
      <trkpt lat="42.88649" lon="0.07542">
        <ele>1874.1999511719</ele>
        <time>2021-02-28T09:13:01.000Z</time>
      </trkpt>
      <trkpt lat="42.88648" lon="0.07539">
        <ele>1875.1999511719</ele>
        <time>2021-02-28T09:13:08.000Z</time>
      </trkpt>
      <trkpt lat="42.88657" lon="0.07531">
        <ele>1875.4000244141</ele>
        <time>2021-02-28T09:16:59.000Z</time>
      </trkpt>
      <trkpt lat="42.88655" lon="0.07536">
        <ele>1875.4000244141</ele>
        <time>2021-02-28T09:17:55.000Z</time>
      </trkpt>
      <trkpt lat="42.8865" lon="0.07521">
        <ele>1876.1999511719</ele>
        <time>2021-02-28T09:18:29.000Z</time>
      </trkpt>
      <trkpt lat="42.88649" lon="0.07518">
        <ele>1876.1999511719</ele>
        <time>2021-02-28T09:18:32.000Z</time>
      </trkpt>
      <trkpt lat="42.88649" lon="0.07508">
        <ele>1876.4000244141</ele>
        <time>2021-02-28T09:18:43.000Z</time>
      </trkpt>
      <trkpt lat="42.88648" lon="0.07505">
        <ele>1876.4000244141</ele>
        <time>2021-02-28T09:18:46.000Z</time>
      </trkpt>
      <trkpt lat="42.88648" lon="0.075">
        <ele>1876.8000488281</ele>
        <time>2021-02-28T09:18:51.000Z</time>
      </trkpt>
      <trkpt lat="42.88648" lon="0.07498">
        <ele>1877.4000244141</ele>
        <time>2021-02-28T09:18:55.000Z</time>
      </trkpt>
      <trkpt lat="42.88649" lon="0.07495">
        <ele>1878.5999755859</ele>
        <time>2021-02-28T09:19:04.000Z</time>
      </trkpt>
      <trkpt lat="42.8865" lon="0.07491">
        <ele>1879.5999755859</ele>
        <time>2021-02-28T09:19:10.000Z</time>
      </trkpt>
      <trkpt lat="42.8865" lon="0.07487">
        <ele>1880.5999755859</ele>
        <time>2021-02-28T09:19:15.000Z</time>
      </trkpt>
      <trkpt lat="42.8865" lon="0.07485">
        <ele>1881.8000488281</ele>
        <time>2021-02-28T09:19:20.000Z</time>
      </trkpt>
      <trkpt lat="42.88648" lon="0.07482">
        <ele>1883</ele>
        <time>2021-02-28T09:19:26.000Z</time>
      </trkpt>
      <trkpt lat="42.88648" lon="0.07479">
        <ele>1884.1999511719</ele>
        <time>2021-02-28T09:19:31.000Z</time>
      </trkpt>
      <trkpt lat="42.88647" lon="0.07476">
        <ele>1885.1999511719</ele>
        <time>2021-02-28T09:19:36.000Z</time>
      </trkpt>
      <trkpt lat="42.88643" lon="0.0747">
        <ele>1886.1999511719</ele>
        <time>2021-02-28T09:19:43.000Z</time>
      </trkpt>
      <trkpt lat="42.88639" lon="0.07466">
        <ele>1887.4000244141</ele>
        <time>2021-02-28T09:19:49.000Z</time>
      </trkpt>
      <trkpt lat="42.88637" lon="0.0746">
        <ele>1888.4000244141</ele>
        <time>2021-02-28T09:19:57.000Z</time>
      </trkpt>
      <trkpt lat="42.88635" lon="0.07454">
        <ele>1889.5999755859</ele>
        <time>2021-02-28T09:20:05.000Z</time>
      </trkpt>
      <trkpt lat="42.88632" lon="0.07449">
        <ele>1890.5999755859</ele>
        <time>2021-02-28T09:20:12.000Z</time>
      </trkpt>
      <trkpt lat="42.88628" lon="0.07446">
        <ele>1891.5999755859</ele>
        <time>2021-02-28T09:20:17.000Z</time>
      </trkpt>
      <trkpt lat="42.88626" lon="0.07444">
        <ele>1892.5999755859</ele>
        <time>2021-02-28T09:20:21.000Z</time>
      </trkpt>
      <trkpt lat="42.88622" lon="0.0744">
        <ele>1893.8000488281</ele>
        <time>2021-02-28T09:20:30.000Z</time>
      </trkpt>
      <trkpt lat="42.88616" lon="0.07433">
        <ele>1895</ele>
        <time>2021-02-28T09:20:40.000Z</time>
      </trkpt>
      <trkpt lat="42.88615" lon="0.07432">
        <ele>1895.1999511719</ele>
        <time>2021-02-28T09:20:42.000Z</time>
      </trkpt>
      <trkpt lat="42.88614" lon="0.07428">
        <ele>1896</ele>
        <time>2021-02-28T09:20:49.000Z</time>
      </trkpt>
      <trkpt lat="42.88607" lon="0.07426">
        <ele>1897.1999511719</ele>
        <time>2021-02-28T09:21:01.000Z</time>
      </trkpt>
      <trkpt lat="42.88604" lon="0.07421">
        <ele>1898.1999511719</ele>
        <time>2021-02-28T09:21:08.000Z</time>
      </trkpt>
      <trkpt lat="42.88601" lon="0.07418">
        <ele>1899.1999511719</ele>
        <time>2021-02-28T09:21:15.000Z</time>
      </trkpt>
      <trkpt lat="42.88598" lon="0.07415">
        <ele>1900.1999511719</ele>
        <time>2021-02-28T09:21:20.000Z</time>
      </trkpt>
      <trkpt lat="42.88592" lon="0.07409">
        <ele>1901.4000244141</ele>
        <time>2021-02-28T09:21:31.000Z</time>
      </trkpt>
      <trkpt lat="42.88584" lon="0.07405">
        <ele>1902.4000244141</ele>
        <time>2021-02-28T09:21:40.000Z</time>
      </trkpt>
      <trkpt lat="42.88584" lon="0.07402">
        <ele>1903.5999755859</ele>
        <time>2021-02-28T09:21:48.000Z</time>
      </trkpt>
      <trkpt lat="42.88579" lon="0.07397">
        <ele>1904.5999755859</ele>
        <time>2021-02-28T09:21:58.000Z</time>
      </trkpt>
      <trkpt lat="42.88575" lon="0.07395">
        <ele>1905.5999755859</ele>
        <time>2021-02-28T09:22:05.000Z</time>
      </trkpt>
      <trkpt lat="42.88569" lon="0.07387">
        <ele>1906.8000488281</ele>
        <time>2021-02-28T09:22:15.000Z</time>
      </trkpt>
      <trkpt lat="42.88567" lon="0.07384">
        <ele>1907.5999755859</ele>
        <time>2021-02-28T09:22:19.000Z</time>
      </trkpt>
      <trkpt lat="42.88566" lon="0.07383">
        <ele>1907.8000488281</ele>
        <time>2021-02-28T09:22:20.000Z</time>
      </trkpt>
      <trkpt lat="42.88564" lon="0.07379">
        <ele>1908.8000488281</ele>
        <time>2021-02-28T09:22:27.000Z</time>
      </trkpt>
      <trkpt lat="42.8856" lon="0.07375">
        <ele>1909.8000488281</ele>
        <time>2021-02-28T09:22:36.000Z</time>
      </trkpt>
      <trkpt lat="42.88554" lon="0.0737">
        <ele>1911</ele>
        <time>2021-02-28T09:22:46.000Z</time>
      </trkpt>
      <trkpt lat="42.88549" lon="0.07363">
        <ele>1912</ele>
        <time>2021-02-28T09:22:58.000Z</time>
      </trkpt>
      <trkpt lat="42.88547" lon="0.07359">
        <ele>1913</ele>
        <time>2021-02-28T09:23:05.000Z</time>
      </trkpt>
      <trkpt lat="42.8854" lon="0.07357">
        <ele>1914.1999511719</ele>
        <time>2021-02-28T09:23:17.000Z</time>
      </trkpt>
      <trkpt lat="42.88532" lon="0.07357">
        <ele>1915.1999511719</ele>
        <time>2021-02-28T09:23:24.000Z</time>
      </trkpt>
      <trkpt lat="42.8853" lon="0.07353">
        <ele>1916.4000244141</ele>
        <time>2021-02-28T09:23:34.000Z</time>
      </trkpt>
      <trkpt lat="42.88525" lon="0.07352">
        <ele>1917.4000244141</ele>
        <time>2021-02-28T09:23:44.000Z</time>
      </trkpt>
      <trkpt lat="42.8852" lon="0.07348">
        <ele>1918.5999755859</ele>
        <time>2021-02-28T09:23:51.000Z</time>
      </trkpt>
      <trkpt lat="42.88514" lon="0.07345">
        <ele>1919.8000488281</ele>
        <time>2021-02-28T09:23:58.000Z</time>
      </trkpt>
      <trkpt lat="42.88511" lon="0.07341">
        <ele>1921</ele>
        <time>2021-02-28T09:24:06.000Z</time>
      </trkpt>
      <trkpt lat="42.88509" lon="0.0734">
        <ele>1922</ele>
        <time>2021-02-28T09:24:13.000Z</time>
      </trkpt>
      <trkpt lat="42.88504" lon="0.07337">
        <ele>1923</ele>
        <time>2021-02-28T09:24:22.000Z</time>
      </trkpt>
      <trkpt lat="42.88498" lon="0.07336">
        <ele>1924.1999511719</ele>
        <time>2021-02-28T09:24:28.000Z</time>
      </trkpt>
      <trkpt lat="42.88493" lon="0.07332">
        <ele>1925.1999511719</ele>
        <time>2021-02-28T09:24:39.000Z</time>
      </trkpt>
      <trkpt lat="42.88487" lon="0.07334">
        <ele>1926.1999511719</ele>
        <time>2021-02-28T09:24:46.000Z</time>
      </trkpt>
      <trkpt lat="42.88485" lon="0.07334">
        <ele>1927.4000244141</ele>
        <time>2021-02-28T09:24:52.000Z</time>
      </trkpt>
      <trkpt lat="42.88478" lon="0.07333">
        <ele>1928.4000244141</ele>
        <time>2021-02-28T09:25:02.000Z</time>
      </trkpt>
      <trkpt lat="42.88475" lon="0.07329">
        <ele>1929.4000244141</ele>
        <time>2021-02-28T09:25:10.000Z</time>
      </trkpt>
      <trkpt lat="42.8847" lon="0.0733">
        <ele>1930.4000244141</ele>
        <time>2021-02-28T09:25:16.000Z</time>
      </trkpt>
      <trkpt lat="42.88464" lon="0.07328">
        <ele>1931.4000244141</ele>
        <time>2021-02-28T09:25:27.000Z</time>
      </trkpt>
      <trkpt lat="42.88462" lon="0.07326">
        <ele>1932.5999755859</ele>
        <time>2021-02-28T09:25:34.000Z</time>
      </trkpt>
      <trkpt lat="42.88456" lon="0.07323">
        <ele>1933.5999755859</ele>
        <time>2021-02-28T09:25:44.000Z</time>
      </trkpt>
      <trkpt lat="42.88452" lon="0.07323">
        <ele>1934.5999755859</ele>
        <time>2021-02-28T09:25:49.000Z</time>
      </trkpt>
      <trkpt lat="42.88445" lon="0.07322">
        <ele>1935.8000488281</ele>
        <time>2021-02-28T09:25:58.000Z</time>
      </trkpt>
      <trkpt lat="42.88438" lon="0.07322">
        <ele>1936.8000488281</ele>
        <time>2021-02-28T09:26:05.000Z</time>
      </trkpt>
      <trkpt lat="42.88434" lon="0.07322">
        <ele>1938</ele>
        <time>2021-02-28T09:26:13.000Z</time>
      </trkpt>
      <trkpt lat="42.88431" lon="0.07322">
        <ele>1939.1999511719</ele>
        <time>2021-02-28T09:26:20.000Z</time>
      </trkpt>
      <trkpt lat="42.88428" lon="0.07323">
        <ele>1940.4000244141</ele>
        <time>2021-02-28T09:26:25.000Z</time>
      </trkpt>
      <trkpt lat="42.88425" lon="0.07324">
        <ele>1941.4000244141</ele>
        <time>2021-02-28T09:26:32.000Z</time>
      </trkpt>
      <trkpt lat="42.88422" lon="0.07325">
        <ele>1942.5999755859</ele>
        <time>2021-02-28T09:26:38.000Z</time>
      </trkpt>
      <trkpt lat="42.8842" lon="0.07324">
        <ele>1943.5999755859</ele>
        <time>2021-02-28T09:26:44.000Z</time>
      </trkpt>
      <trkpt lat="42.88418" lon="0.07323">
        <ele>1944.8000488281</ele>
        <time>2021-02-28T09:26:57.000Z</time>
      </trkpt>
      <trkpt lat="42.88415" lon="0.07323">
        <ele>1946</ele>
        <time>2021-02-28T09:27:01.000Z</time>
      </trkpt>
      <trkpt lat="42.88412" lon="0.07323">
        <ele>1947.1999511719</ele>
        <time>2021-02-28T09:27:07.000Z</time>
      </trkpt>
      <trkpt lat="42.8841" lon="0.07324">
        <ele>1948.1999511719</ele>
        <time>2021-02-28T09:27:11.000Z</time>
      </trkpt>
      <trkpt lat="42.88407" lon="0.07325">
        <ele>1949.1999511719</ele>
        <time>2021-02-28T09:27:16.000Z</time>
      </trkpt>
      <trkpt lat="42.88407" lon="0.07325">
        <ele>1949.4000244141</ele>
        <time>2021-02-28T09:27:17.000Z</time>
      </trkpt>
      <trkpt lat="42.88404" lon="0.07327">
        <ele>1950.4000244141</ele>
        <time>2021-02-28T09:27:23.000Z</time>
      </trkpt>
      <trkpt lat="42.88402" lon="0.07327">
        <ele>1951.4000244141</ele>
        <time>2021-02-28T09:27:27.000Z</time>
      </trkpt>
      <trkpt lat="42.884" lon="0.07325">
        <ele>1952.5999755859</ele>
        <time>2021-02-28T09:27:33.000Z</time>
      </trkpt>
      <trkpt lat="42.88396" lon="0.07323">
        <ele>1953.5999755859</ele>
        <time>2021-02-28T09:27:39.000Z</time>
      </trkpt>
      <trkpt lat="42.88393" lon="0.07323">
        <ele>1954.5999755859</ele>
        <time>2021-02-28T09:27:46.000Z</time>
      </trkpt>
      <trkpt lat="42.88383" lon="0.07321">
        <ele>1955.8000488281</ele>
        <time>2021-02-28T09:28:01.000Z</time>
      </trkpt>
      <trkpt lat="42.88381" lon="0.07318">
        <ele>1957</ele>
        <time>2021-02-28T09:28:11.000Z</time>
      </trkpt>
      <trkpt lat="42.88373" lon="0.07314">
        <ele>1958</ele>
        <time>2021-02-28T09:28:41.000Z</time>
      </trkpt>
      <trkpt lat="42.88368" lon="0.07312">
        <ele>1958.5999755859</ele>
        <time>2021-02-28T09:28:48.000Z</time>
      </trkpt>
      <trkpt lat="42.88365" lon="0.07312">
        <ele>1958.8000488281</ele>
        <time>2021-02-28T09:28:51.000Z</time>
      </trkpt>
      <trkpt lat="42.88364" lon="0.07311">
        <ele>1959.1999511719</ele>
        <time>2021-02-28T09:28:53.000Z</time>
      </trkpt>
      <trkpt lat="42.88362" lon="0.0731">
        <ele>1959.4000244141</ele>
        <time>2021-02-28T09:28:55.000Z</time>
      </trkpt>
      <trkpt lat="42.88347" lon="0.0731">
        <ele>1960.1999511719</ele>
        <time>2021-02-28T09:29:09.000Z</time>
      </trkpt>
      <trkpt lat="42.88344" lon="0.0731">
        <ele>1960.4000244141</ele>
        <time>2021-02-28T09:29:12.000Z</time>
      </trkpt>
      <trkpt lat="42.88341" lon="0.0731">
        <ele>1961.1999511719</ele>
        <time>2021-02-28T09:29:22.000Z</time>
      </trkpt>
      <trkpt lat="42.88343" lon="0.0731">
        <ele>1961.1999511719</ele>
        <time>2021-02-28T09:29:25.000Z</time>
      </trkpt>
      <trkpt lat="42.8834" lon="0.07315">
        <ele>1960.5999755859</ele>
        <time>2021-02-28T09:30:56.000Z</time>
      </trkpt>
      <trkpt lat="42.88332" lon="0.07309">
        <ele>1962.1999511719</ele>
        <time>2021-02-28T09:31:35.000Z</time>
      </trkpt>
      <trkpt lat="42.88326" lon="0.07311">
        <ele>1963.4000244141</ele>
        <time>2021-02-28T09:31:41.000Z</time>
      </trkpt>
      <trkpt lat="42.88327" lon="0.07309">
        <ele>1964.4000244141</ele>
        <time>2021-02-28T09:31:45.000Z</time>
      </trkpt>
      <trkpt lat="42.88323" lon="0.07312">
        <ele>1965.4000244141</ele>
        <time>2021-02-28T09:33:11.000Z</time>
      </trkpt>
      <trkpt lat="42.88324" lon="0.07311">
        <ele>1965.4000244141</ele>
        <time>2021-02-28T09:33:12.000Z</time>
      </trkpt>
      <trkpt lat="42.88324" lon="0.07311">
        <ele>1965.4000244141</ele>
        <time>2021-02-28T09:33:18.000Z</time>
      </trkpt>
      <trkpt lat="42.88326" lon="0.07311">
        <ele>1966.5999755859</ele>
        <time>2021-02-28T09:33:29.000Z</time>
      </trkpt>
      <trkpt lat="42.88325" lon="0.07311">
        <ele>1967</ele>
        <time>2021-02-28T09:33:31.000Z</time>
      </trkpt>
      <trkpt lat="42.88322" lon="0.07313">
        <ele>1967.8000488281</ele>
        <time>2021-02-28T09:33:34.000Z</time>
      </trkpt>
      <trkpt lat="42.88319" lon="0.07316">
        <ele>1968.4000244141</ele>
        <time>2021-02-28T09:33:37.000Z</time>
      </trkpt>
      <trkpt lat="42.88318" lon="0.07317">
        <ele>1968.8000488281</ele>
        <time>2021-02-28T09:33:39.000Z</time>
      </trkpt>
      <trkpt lat="42.88315" lon="0.07319">
        <ele>1969.8000488281</ele>
        <time>2021-02-28T09:33:44.000Z</time>
      </trkpt>
      <trkpt lat="42.88314" lon="0.0732">
        <ele>1971</ele>
        <time>2021-02-28T09:33:48.000Z</time>
      </trkpt>
      <trkpt lat="42.88313" lon="0.0732">
        <ele>1971.5999755859</ele>
        <time>2021-02-28T09:33:50.000Z</time>
      </trkpt>
      <trkpt lat="42.88311" lon="0.0732">
        <ele>1972.1999511719</ele>
        <time>2021-02-28T09:33:52.000Z</time>
      </trkpt>
      <trkpt lat="42.88311" lon="0.0732">
        <ele>1972.4000244141</ele>
        <time>2021-02-28T09:33:53.000Z</time>
      </trkpt>
      <trkpt lat="42.8831" lon="0.07323">
        <ele>1973.4000244141</ele>
        <time>2021-02-28T09:33:58.000Z</time>
      </trkpt>
      <trkpt lat="42.88308" lon="0.07323">
        <ele>1974.4000244141</ele>
        <time>2021-02-28T09:34:02.000Z</time>
      </trkpt>
      <trkpt lat="42.88305" lon="0.07322">
        <ele>1975.4000244141</ele>
        <time>2021-02-28T09:34:07.000Z</time>
      </trkpt>
      <trkpt lat="42.88302" lon="0.07322">
        <ele>1976.5999755859</ele>
        <time>2021-02-28T09:34:13.000Z</time>
      </trkpt>
      <trkpt lat="42.88298" lon="0.07322">
        <ele>1977.8000488281</ele>
        <time>2021-02-28T09:34:18.000Z</time>
      </trkpt>
      <trkpt lat="42.88297" lon="0.07322">
        <ele>1978.8000488281</ele>
        <time>2021-02-28T09:34:24.000Z</time>
      </trkpt>
      <trkpt lat="42.88297" lon="0.07322">
        <ele>1980</ele>
        <time>2021-02-28T09:34:29.000Z</time>
      </trkpt>
      <trkpt lat="42.88296" lon="0.07322">
        <ele>1981.1999511719</ele>
        <time>2021-02-28T09:34:33.000Z</time>
      </trkpt>
      <trkpt lat="42.88296" lon="0.07326">
        <ele>1982.1999511719</ele>
        <time>2021-02-28T09:34:39.000Z</time>
      </trkpt>
      <trkpt lat="42.88297" lon="0.0733">
        <ele>1983</ele>
        <time>2021-02-28T09:34:43.000Z</time>
      </trkpt>
      <trkpt lat="42.88297" lon="0.07333">
        <ele>1983.4000244141</ele>
        <time>2021-02-28T09:34:46.000Z</time>
      </trkpt>
      <trkpt lat="42.88298" lon="0.07334">
        <ele>1983.8000488281</ele>
        <time>2021-02-28T09:34:48.000Z</time>
      </trkpt>
      <trkpt lat="42.88299" lon="0.07337">
        <ele>1984.4000244141</ele>
        <time>2021-02-28T09:34:52.000Z</time>
      </trkpt>
      <trkpt lat="42.883" lon="0.07339">
        <ele>1985.1999511719</ele>
        <time>2021-02-28T09:34:56.000Z</time>
      </trkpt>
      <trkpt lat="42.883" lon="0.07341">
        <ele>1985.5999755859</ele>
        <time>2021-02-28T09:34:58.000Z</time>
      </trkpt>
      <trkpt lat="42.88299" lon="0.07346">
        <ele>1986.5999755859</ele>
        <time>2021-02-28T09:35:05.000Z</time>
      </trkpt>
      <trkpt lat="42.88299" lon="0.07351">
        <ele>1987.8000488281</ele>
        <time>2021-02-28T09:35:10.000Z</time>
      </trkpt>
      <trkpt lat="42.88298" lon="0.07354">
        <ele>1988.1999511719</ele>
        <time>2021-02-28T09:35:12.000Z</time>
      </trkpt>
      <trkpt lat="42.88297" lon="0.07355">
        <ele>1988.5999755859</ele>
        <time>2021-02-28T09:35:14.000Z</time>
      </trkpt>
      <trkpt lat="42.88297" lon="0.07356">
        <ele>1988.8000488281</ele>
        <time>2021-02-28T09:35:15.000Z</time>
      </trkpt>
      <trkpt lat="42.88297" lon="0.07357">
        <ele>1989</ele>
        <time>2021-02-28T09:35:16.000Z</time>
      </trkpt>
      <trkpt lat="42.88297" lon="0.0736">
        <ele>1989.8000488281</ele>
        <time>2021-02-28T09:35:21.000Z</time>
      </trkpt>
      <trkpt lat="42.88301" lon="0.07363">
        <ele>1991</ele>
        <time>2021-02-28T09:35:29.000Z</time>
      </trkpt>
      <trkpt lat="42.88306" lon="0.07368">
        <ele>1992.1999511719</ele>
        <time>2021-02-28T09:35:37.000Z</time>
      </trkpt>
      <trkpt lat="42.88308" lon="0.07371">
        <ele>1993.1999511719</ele>
        <time>2021-02-28T09:35:42.000Z</time>
      </trkpt>
      <trkpt lat="42.88311" lon="0.07375">
        <ele>1994.1999511719</ele>
        <time>2021-02-28T09:35:48.000Z</time>
      </trkpt>
      <trkpt lat="42.88314" lon="0.07379">
        <ele>1995.1999511719</ele>
        <time>2021-02-28T09:35:54.000Z</time>
      </trkpt>
      <trkpt lat="42.88321" lon="0.07384">
        <ele>1996.4000244141</ele>
        <time>2021-02-28T09:36:05.000Z</time>
      </trkpt>
      <trkpt lat="42.88328" lon="0.07387">
        <ele>1997.4000244141</ele>
        <time>2021-02-28T09:36:11.000Z</time>
      </trkpt>
      <trkpt lat="42.88332" lon="0.0739">
        <ele>1998.1999511719</ele>
        <time>2021-02-28T09:36:16.000Z</time>
      </trkpt>
      <trkpt lat="42.88333" lon="0.07391">
        <ele>1998.5999755859</ele>
        <time>2021-02-28T09:36:18.000Z</time>
      </trkpt>
      <trkpt lat="42.88334" lon="0.07392">
        <ele>1998.8000488281</ele>
        <time>2021-02-28T09:36:19.000Z</time>
      </trkpt>
      <trkpt lat="42.88341" lon="0.07397">
        <ele>1999.5999755859</ele>
        <time>2021-02-28T09:36:27.000Z</time>
      </trkpt>
      <trkpt lat="42.88346" lon="0.07401">
        <ele>2000.5999755859</ele>
        <time>2021-02-28T09:36:35.000Z</time>
      </trkpt>
      <trkpt lat="42.88354" lon="0.07406">
        <ele>2001.8000488281</ele>
        <time>2021-02-28T09:36:45.000Z</time>
      </trkpt>
      <trkpt lat="42.88359" lon="0.07412">
        <ele>2002.8000488281</ele>
        <time>2021-02-28T09:36:54.000Z</time>
      </trkpt>
      <trkpt lat="42.88361" lon="0.07418">
        <ele>2003.8000488281</ele>
        <time>2021-02-28T09:37:03.000Z</time>
      </trkpt>
      <trkpt lat="42.88363" lon="0.07423">
        <ele>2004.8000488281</ele>
        <time>2021-02-28T09:37:11.000Z</time>
      </trkpt>
      <trkpt lat="42.88364" lon="0.0743">
        <ele>2006</ele>
        <time>2021-02-28T09:37:19.000Z</time>
      </trkpt>
      <trkpt lat="42.8837" lon="0.07432">
        <ele>2007</ele>
        <time>2021-02-28T09:37:26.000Z</time>
      </trkpt>
      <trkpt lat="42.88374" lon="0.07436">
        <ele>2008.1999511719</ele>
        <time>2021-02-28T09:37:33.000Z</time>
      </trkpt>
      <trkpt lat="42.88375" lon="0.07445">
        <ele>2009.1999511719</ele>
        <time>2021-02-28T09:37:44.000Z</time>
      </trkpt>
      <trkpt lat="42.88377" lon="0.07449">
        <ele>2010.4000244141</ele>
        <time>2021-02-28T09:37:52.000Z</time>
      </trkpt>
      <trkpt lat="42.88379" lon="0.07457">
        <ele>2011.5999755859</ele>
        <time>2021-02-28T09:38:04.000Z</time>
      </trkpt>
      <trkpt lat="42.88385" lon="0.0746">
        <ele>2012.5999755859</ele>
        <time>2021-02-28T09:38:11.000Z</time>
      </trkpt>
      <trkpt lat="42.88392" lon="0.07466">
        <ele>2013.5999755859</ele>
        <time>2021-02-28T09:38:26.000Z</time>
      </trkpt>
      <trkpt lat="42.88394" lon="0.0747">
        <ele>2014.8000488281</ele>
        <time>2021-02-28T09:38:31.000Z</time>
      </trkpt>
      <trkpt lat="42.88391" lon="0.07474">
        <ele>2015.8000488281</ele>
        <time>2021-02-28T09:38:39.000Z</time>
      </trkpt>
      <trkpt lat="42.88388" lon="0.07476">
        <ele>2016.8000488281</ele>
        <time>2021-02-28T09:38:47.000Z</time>
      </trkpt>
      <trkpt lat="42.88377" lon="0.07473">
        <ele>2017.1999511719</ele>
        <time>2021-02-28T09:40:11.000Z</time>
      </trkpt>
      <trkpt lat="42.8837" lon="0.07473">
        <ele>2017.8000488281</ele>
        <time>2021-02-28T09:40:38.000Z</time>
      </trkpt>
      <trkpt lat="42.88365" lon="0.0747">
        <ele>2019</ele>
        <time>2021-02-28T09:40:48.000Z</time>
      </trkpt>
      <trkpt lat="42.88358" lon="0.07456">
        <ele>2018</ele>
        <time>2021-02-28T09:41:35.000Z</time>
      </trkpt>
      <trkpt lat="42.88346" lon="0.07449">
        <ele>2017.1999511719</ele>
        <time>2021-02-28T09:42:04.000Z</time>
      </trkpt>
      <trkpt lat="42.88346" lon="0.07448">
        <ele>2017.4000244141</ele>
        <time>2021-02-28T09:42:30.000Z</time>
      </trkpt>
      <trkpt lat="42.8833" lon="0.07442">
        <ele>2018.8000488281</ele>
        <time>2021-02-28T09:42:51.000Z</time>
      </trkpt>
      <trkpt lat="42.88329" lon="0.07441">
        <ele>2019</ele>
        <time>2021-02-28T09:42:52.000Z</time>
      </trkpt>
      <trkpt lat="42.88325" lon="0.07439">
        <ele>2019.8000488281</ele>
        <time>2021-02-28T09:42:58.000Z</time>
      </trkpt>
      <trkpt lat="42.88324" lon="0.07438">
        <ele>2020.1999511719</ele>
        <time>2021-02-28T09:43:00.000Z</time>
      </trkpt>
      <trkpt lat="42.88321" lon="0.07436">
        <ele>2021.1999511719</ele>
        <time>2021-02-28T09:43:07.000Z</time>
      </trkpt>
      <trkpt lat="42.88332" lon="0.07438">
        <ele>2020.1999511719</ele>
        <time>2021-02-28T09:45:34.000Z</time>
      </trkpt>
      <trkpt lat="42.88333" lon="0.07439">
        <ele>2020</ele>
        <time>2021-02-28T09:45:35.000Z</time>
      </trkpt>
      <trkpt lat="42.88338" lon="0.07441">
        <ele>2019</ele>
        <time>2021-02-28T09:45:43.000Z</time>
      </trkpt>
      <trkpt lat="42.88341" lon="0.07443">
        <ele>2018.5999755859</ele>
        <time>2021-02-28T09:45:47.000Z</time>
      </trkpt>
      <trkpt lat="42.88342" lon="0.07444">
        <ele>2018.4000244141</ele>
        <time>2021-02-28T09:45:49.000Z</time>
      </trkpt>
      <trkpt lat="42.88347" lon="0.07445">
        <ele>2018</ele>
        <time>2021-02-28T09:45:54.000Z</time>
      </trkpt>
      <trkpt lat="42.8835" lon="0.07447">
        <ele>2017.5999755859</ele>
        <time>2021-02-28T09:45:59.000Z</time>
      </trkpt>
      <trkpt lat="42.88356" lon="0.07449">
        <ele>2017</ele>
        <time>2021-02-28T09:46:10.000Z</time>
      </trkpt>
      <trkpt lat="42.8837" lon="0.07463">
        <ele>2017.1999511719</ele>
        <time>2021-02-28T09:46:29.000Z</time>
      </trkpt>
      <trkpt lat="42.88374" lon="0.07469">
        <ele>2017.8000488281</ele>
        <time>2021-02-28T09:46:36.000Z</time>
      </trkpt>
      <trkpt lat="42.88379" lon="0.07473">
        <ele>2018</ele>
        <time>2021-02-28T09:46:42.000Z</time>
      </trkpt>
      <trkpt lat="42.88381" lon="0.07474">
        <ele>2017.8000488281</ele>
        <time>2021-02-28T09:46:45.000Z</time>
      </trkpt>
      <trkpt lat="42.88385" lon="0.07476">
        <ele>2017.4000244141</ele>
        <time>2021-02-28T09:46:50.000Z</time>
      </trkpt>
      <trkpt lat="42.88386" lon="0.07476">
        <ele>2017.4000244141</ele>
        <time>2021-02-28T09:46:52.000Z</time>
      </trkpt>
      <trkpt lat="42.88386" lon="0.07476">
        <ele>2017.5999755859</ele>
        <time>2021-02-28T09:46:54.000Z</time>
      </trkpt>
      <trkpt lat="42.88387" lon="0.07476">
        <ele>2017.8000488281</ele>
        <time>2021-02-28T09:46:59.000Z</time>
      </trkpt>
      <trkpt lat="42.88389" lon="0.07475">
        <ele>2017.4000244141</ele>
        <time>2021-02-28T09:47:54.000Z</time>
      </trkpt>
      <trkpt lat="42.8865" lon="0.07544">
        <ele>1873.5999755859</ele>
        <time>2021-02-28T10:05:46.000Z</time>
      </trkpt>
      <trkpt lat="42.88655" lon="0.07545">
        <ele>1873.5999755859</ele>
        <time>2021-02-28T10:05:53.000Z</time>
      </trkpt>
      <trkpt lat="42.8866" lon="0.07547">
        <ele>1873.1999511719</ele>
        <time>2021-02-28T10:05:56.000Z</time>
      </trkpt>
      <trkpt lat="42.88661" lon="0.07547">
        <ele>1872.5999755859</ele>
        <time>2021-02-28T10:05:58.000Z</time>
      </trkpt>
      <trkpt lat="42.88664" lon="0.07548">
        <ele>1871.4000244141</ele>
        <time>2021-02-28T10:06:02.000Z</time>
      </trkpt>
      <trkpt lat="42.88668" lon="0.0755">
        <ele>1871</ele>
        <time>2021-02-28T10:06:04.000Z</time>
      </trkpt>
      <trkpt lat="42.88668" lon="0.07559">
        <ele>1870.5999755859</ele>
        <time>2021-02-28T10:06:06.000Z</time>
      </trkpt>
      <trkpt lat="42.88667" lon="0.07564">
        <ele>1869.8000488281</ele>
        <time>2021-02-28T10:06:07.000Z</time>
      </trkpt>
      <trkpt lat="42.88665" lon="0.07576">
        <ele>1868</ele>
        <time>2021-02-28T10:06:09.000Z</time>
      </trkpt>
      <trkpt lat="42.88665" lon="0.07581">
        <ele>1867.1999511719</ele>
        <time>2021-02-28T10:06:10.000Z</time>
      </trkpt>
      <trkpt lat="42.88667" lon="0.07583">
        <ele>1866.5999755859</ele>
        <time>2021-02-28T10:06:11.000Z</time>
      </trkpt>
      <trkpt lat="42.88671" lon="0.07585">
        <ele>1865.4000244141</ele>
        <time>2021-02-28T10:06:13.000Z</time>
      </trkpt>
      <trkpt lat="42.88678" lon="0.07591">
        <ele>1863.8000488281</ele>
        <time>2021-02-28T10:06:15.000Z</time>
      </trkpt>
      <trkpt lat="42.88681" lon="0.07597">
        <ele>1862</ele>
        <time>2021-02-28T10:06:17.000Z</time>
      </trkpt>
      <trkpt lat="42.88681" lon="0.07598">
        <ele>1861</ele>
        <time>2021-02-28T10:06:18.000Z</time>
      </trkpt>
      <trkpt lat="42.88681" lon="0.07601">
        <ele>1860</ele>
        <time>2021-02-28T10:06:19.000Z</time>
      </trkpt>
      <trkpt lat="42.88682" lon="0.07603">
        <ele>1859.4000244141</ele>
        <time>2021-02-28T10:06:20.000Z</time>
      </trkpt>
      <trkpt lat="42.88684" lon="0.07604">
        <ele>1859</ele>
        <time>2021-02-28T10:06:21.000Z</time>
      </trkpt>
      <trkpt lat="42.88688" lon="0.07603">
        <ele>1858.1999511719</ele>
        <time>2021-02-28T10:06:23.000Z</time>
      </trkpt>
      <trkpt lat="42.88694" lon="0.07599">
        <ele>1857.1999511719</ele>
        <time>2021-02-28T10:06:25.000Z</time>
      </trkpt>
      <trkpt lat="42.88698" lon="0.07597">
        <ele>1855.8000488281</ele>
        <time>2021-02-28T10:06:27.000Z</time>
      </trkpt>
      <trkpt lat="42.88703" lon="0.07597">
        <ele>1855</ele>
        <time>2021-02-28T10:06:28.000Z</time>
      </trkpt>
      <trkpt lat="42.88705" lon="0.07599">
        <ele>1854.1999511719</ele>
        <time>2021-02-28T10:06:29.000Z</time>
      </trkpt>
      <trkpt lat="42.88705" lon="0.07604">
        <ele>1853</ele>
        <time>2021-02-28T10:06:30.000Z</time>
      </trkpt>
      <trkpt lat="42.88706" lon="0.07609">
        <ele>1851.4000244141</ele>
        <time>2021-02-28T10:06:31.000Z</time>
      </trkpt>
      <trkpt lat="42.88708" lon="0.07612">
        <ele>1849.8000488281</ele>
        <time>2021-02-28T10:06:32.000Z</time>
      </trkpt>
      <trkpt lat="42.88711" lon="0.07614">
        <ele>1848.1999511719</ele>
        <time>2021-02-28T10:06:33.000Z</time>
      </trkpt>
      <trkpt lat="42.88713" lon="0.07618">
        <ele>1846.5999755859</ele>
        <time>2021-02-28T10:06:34.000Z</time>
      </trkpt>
      <trkpt lat="42.88716" lon="0.07622">
        <ele>1844.1999511719</ele>
        <time>2021-02-28T10:06:35.000Z</time>
      </trkpt>
      <trkpt lat="42.88721" lon="0.07625">
        <ele>1841.5999755859</ele>
        <time>2021-02-28T10:06:36.000Z</time>
      </trkpt>
      <trkpt lat="42.88725" lon="0.07629">
        <ele>1838.4000244141</ele>
        <time>2021-02-28T10:06:37.000Z</time>
      </trkpt>
      <trkpt lat="42.88729" lon="0.07634">
        <ele>1835.4000244141</ele>
        <time>2021-02-28T10:06:38.000Z</time>
      </trkpt>
      <trkpt lat="42.88733" lon="0.07638">
        <ele>1832</ele>
        <time>2021-02-28T10:06:39.000Z</time>
      </trkpt>
      <trkpt lat="42.88738" lon="0.07641">
        <ele>1829.1999511719</ele>
        <time>2021-02-28T10:06:40.000Z</time>
      </trkpt>
      <trkpt lat="42.8874" lon="0.07645">
        <ele>1826.4000244141</ele>
        <time>2021-02-28T10:06:41.000Z</time>
      </trkpt>
      <trkpt lat="42.88743" lon="0.07649">
        <ele>1823.8000488281</ele>
        <time>2021-02-28T10:06:42.000Z</time>
      </trkpt>
      <trkpt lat="42.88747" lon="0.07652">
        <ele>1821</ele>
        <time>2021-02-28T10:06:43.000Z</time>
      </trkpt>
      <trkpt lat="42.88751" lon="0.07654">
        <ele>1817.8000488281</ele>
        <time>2021-02-28T10:06:44.000Z</time>
      </trkpt>
      <trkpt lat="42.88754" lon="0.07658">
        <ele>1815</ele>
        <time>2021-02-28T10:06:45.000Z</time>
      </trkpt>
      <trkpt lat="42.88756" lon="0.07662">
        <ele>1812</ele>
        <time>2021-02-28T10:06:46.000Z</time>
      </trkpt>
      <trkpt lat="42.8876" lon="0.07665">
        <ele>1809.8000488281</ele>
        <time>2021-02-28T10:06:47.000Z</time>
      </trkpt>
      <trkpt lat="42.88764" lon="0.07668">
        <ele>1807.4000244141</ele>
        <time>2021-02-28T10:06:48.000Z</time>
      </trkpt>
      <trkpt lat="42.88767" lon="0.07671">
        <ele>1805</ele>
        <time>2021-02-28T10:06:49.000Z</time>
      </trkpt>
      <trkpt lat="42.88771" lon="0.07674">
        <ele>1802</ele>
        <time>2021-02-28T10:06:50.000Z</time>
      </trkpt>
      <trkpt lat="42.88775" lon="0.07677">
        <ele>1799.1999511719</ele>
        <time>2021-02-28T10:06:51.000Z</time>
      </trkpt>
      <trkpt lat="42.88777" lon="0.07681">
        <ele>1796.4000244141</ele>
        <time>2021-02-28T10:06:52.000Z</time>
      </trkpt>
      <trkpt lat="42.88781" lon="0.07686">
        <ele>1793.5999755859</ele>
        <time>2021-02-28T10:06:53.000Z</time>
      </trkpt>
      <trkpt lat="42.88785" lon="0.07691">
        <ele>1791.1999511719</ele>
        <time>2021-02-28T10:06:54.000Z</time>
      </trkpt>
      <trkpt lat="42.88789" lon="0.07696">
        <ele>1789</ele>
        <time>2021-02-28T10:06:55.000Z</time>
      </trkpt>
      <trkpt lat="42.88794" lon="0.07703">
        <ele>1786.4000244141</ele>
        <time>2021-02-28T10:06:56.000Z</time>
      </trkpt>
      <trkpt lat="42.88799" lon="0.07708">
        <ele>1783.8000488281</ele>
        <time>2021-02-28T10:06:57.000Z</time>
      </trkpt>
      <trkpt lat="42.88804" lon="0.07714">
        <ele>1781.1999511719</ele>
        <time>2021-02-28T10:06:58.000Z</time>
      </trkpt>
      <trkpt lat="42.88808" lon="0.0772">
        <ele>1778.5999755859</ele>
        <time>2021-02-28T10:06:59.000Z</time>
      </trkpt>
      <trkpt lat="42.88812" lon="0.07724">
        <ele>1776</ele>
        <time>2021-02-28T10:07:00.000Z</time>
      </trkpt>
      <trkpt lat="42.88817" lon="0.07726">
        <ele>1773.5999755859</ele>
        <time>2021-02-28T10:07:01.000Z</time>
      </trkpt>
      <trkpt lat="42.88821" lon="0.07727">
        <ele>1771.5999755859</ele>
        <time>2021-02-28T10:07:02.000Z</time>
      </trkpt>
      <trkpt lat="42.88825" lon="0.07729">
        <ele>1770.1999511719</ele>
        <time>2021-02-28T10:07:03.000Z</time>
      </trkpt>
      <trkpt lat="42.88826" lon="0.07729">
        <ele>1768.8000488281</ele>
        <time>2021-02-28T10:07:04.000Z</time>
      </trkpt>
      <trkpt lat="42.88826" lon="0.07728">
        <ele>1767.8000488281</ele>
        <time>2021-02-28T10:07:05.000Z</time>
      </trkpt>
      <trkpt lat="42.88826" lon="0.07728">
        <ele>1767</ele>
        <time>2021-02-28T10:07:06.000Z</time>
      </trkpt>
      <trkpt lat="42.88826" lon="0.07728">
        <ele>1766.5999755859</ele>
        <time>2021-02-28T10:07:07.000Z</time>
      </trkpt>
      <trkpt lat="42.88824" lon="0.07726">
        <ele>1766.1999511719</ele>
        <time>2021-02-28T10:07:08.000Z</time>
      </trkpt>
      <trkpt lat="42.88842" lon="0.0775">
        <ele>1764.5999755859</ele>
        <time>2021-02-28T10:08:28.000Z</time>
      </trkpt>
      <trkpt lat="42.88847" lon="0.07751">
        <ele>1762.5999755859</ele>
        <time>2021-02-28T10:08:29.000Z</time>
      </trkpt>
      <trkpt lat="42.88852" lon="0.07753">
        <ele>1759.8000488281</ele>
        <time>2021-02-28T10:08:30.000Z</time>
      </trkpt>
      <trkpt lat="42.88857" lon="0.07755">
        <ele>1758.4000244141</ele>
        <time>2021-02-28T10:08:31.000Z</time>
      </trkpt>
      <trkpt lat="42.88861" lon="0.07758">
        <ele>1756</ele>
        <time>2021-02-28T10:08:32.000Z</time>
      </trkpt>
      <trkpt lat="42.88866" lon="0.0776">
        <ele>1754.4000244141</ele>
        <time>2021-02-28T10:08:33.000Z</time>
      </trkpt>
      <trkpt lat="42.88876" lon="0.07768">
        <ele>1754</ele>
        <time>2021-02-28T10:08:36.000Z</time>
      </trkpt>
      <trkpt lat="42.8888" lon="0.07768">
        <ele>1753.1999511719</ele>
        <time>2021-02-28T10:08:37.000Z</time>
      </trkpt>
      <trkpt lat="42.88891" lon="0.07774">
        <ele>1750.8000488281</ele>
        <time>2021-02-28T10:08:39.000Z</time>
      </trkpt>
      <trkpt lat="42.88896" lon="0.07777">
        <ele>1749.1999511719</ele>
        <time>2021-02-28T10:08:40.000Z</time>
      </trkpt>
      <trkpt lat="42.88901" lon="0.07779">
        <ele>1747.4000244141</ele>
        <time>2021-02-28T10:08:41.000Z</time>
      </trkpt>
      <trkpt lat="42.88907" lon="0.07778">
        <ele>1745.8000488281</ele>
        <time>2021-02-28T10:08:42.000Z</time>
      </trkpt>
      <trkpt lat="42.88912" lon="0.07776">
        <ele>1744.4000244141</ele>
        <time>2021-02-28T10:08:43.000Z</time>
      </trkpt>
      <trkpt lat="42.88918" lon="0.07775">
        <ele>1743</ele>
        <time>2021-02-28T10:08:44.000Z</time>
      </trkpt>
      <trkpt lat="42.88923" lon="0.07777">
        <ele>1742</ele>
        <time>2021-02-28T10:08:45.000Z</time>
      </trkpt>
      <trkpt lat="42.88929" lon="0.07779">
        <ele>1740.5999755859</ele>
        <time>2021-02-28T10:08:46.000Z</time>
      </trkpt>
      <trkpt lat="42.88934" lon="0.07779">
        <ele>1739</ele>
        <time>2021-02-28T10:08:47.000Z</time>
      </trkpt>
      <trkpt lat="42.8894" lon="0.07777">
        <ele>1737.1999511719</ele>
        <time>2021-02-28T10:08:48.000Z</time>
      </trkpt>
      <trkpt lat="42.88945" lon="0.07779">
        <ele>1735.5999755859</ele>
        <time>2021-02-28T10:08:49.000Z</time>
      </trkpt>
      <trkpt lat="42.8895" lon="0.07784">
        <ele>1734</ele>
        <time>2021-02-28T10:08:50.000Z</time>
      </trkpt>
      <trkpt lat="42.88954" lon="0.07788">
        <ele>1732.5999755859</ele>
        <time>2021-02-28T10:08:51.000Z</time>
      </trkpt>
      <trkpt lat="42.88958" lon="0.0779">
        <ele>1731.4000244141</ele>
        <time>2021-02-28T10:08:52.000Z</time>
      </trkpt>
      <trkpt lat="42.88962" lon="0.0779">
        <ele>1730.1999511719</ele>
        <time>2021-02-28T10:08:53.000Z</time>
      </trkpt>
      <trkpt lat="42.88963" lon="0.07791">
        <ele>1729</ele>
        <time>2021-02-28T10:08:54.000Z</time>
      </trkpt>
      <trkpt lat="42.88964" lon="0.0779">
        <ele>1728</ele>
        <time>2021-02-28T10:08:55.000Z</time>
      </trkpt>
      <trkpt lat="42.88965" lon="0.07791">
        <ele>1727.1999511719</ele>
        <time>2021-02-28T10:08:56.000Z</time>
      </trkpt>
      <trkpt lat="42.88965" lon="0.07792">
        <ele>1726.4000244141</ele>
        <time>2021-02-28T10:08:57.000Z</time>
      </trkpt>
      <trkpt lat="42.88965" lon="0.07792">
        <ele>1726.1999511719</ele>
        <time>2021-02-28T10:08:58.000Z</time>
      </trkpt>
      <trkpt lat="42.88966" lon="0.07787">
        <ele>1725.5999755859</ele>
        <time>2021-02-28T10:09:35.000Z</time>
      </trkpt>
      <trkpt lat="42.88966" lon="0.07788">
        <ele>1725</ele>
        <time>2021-02-28T10:09:37.000Z</time>
      </trkpt>
      <trkpt lat="42.88976" lon="0.07804">
        <ele>1724.1999511719</ele>
        <time>2021-02-28T10:09:54.000Z</time>
      </trkpt>
      <trkpt lat="42.88976" lon="0.0781">
        <ele>1723.8000488281</ele>
        <time>2021-02-28T10:09:55.000Z</time>
      </trkpt>
      <trkpt lat="42.88978" lon="0.07823">
        <ele>1722.1999511719</ele>
        <time>2021-02-28T10:09:57.000Z</time>
      </trkpt>
      <trkpt lat="42.88981" lon="0.07828">
        <ele>1721</ele>
        <time>2021-02-28T10:09:58.000Z</time>
      </trkpt>
      <trkpt lat="42.88983" lon="0.07833">
        <ele>1719.4000244141</ele>
        <time>2021-02-28T10:09:59.000Z</time>
      </trkpt>
      <trkpt lat="42.88984" lon="0.07838">
        <ele>1717.8000488281</ele>
        <time>2021-02-28T10:10:00.000Z</time>
      </trkpt>
      <trkpt lat="42.88985" lon="0.07843">
        <ele>1716.1999511719</ele>
        <time>2021-02-28T10:10:01.000Z</time>
      </trkpt>
      <trkpt lat="42.88986" lon="0.07848">
        <ele>1715.4000244141</ele>
        <time>2021-02-28T10:10:02.000Z</time>
      </trkpt>
      <trkpt lat="42.88988" lon="0.07852">
        <ele>1714.4000244141</ele>
        <time>2021-02-28T10:10:03.000Z</time>
      </trkpt>
      <trkpt lat="42.8899" lon="0.07857">
        <ele>1713.4000244141</ele>
        <time>2021-02-28T10:10:04.000Z</time>
      </trkpt>
      <trkpt lat="42.88989" lon="0.07862">
        <ele>1712</ele>
        <time>2021-02-28T10:10:05.000Z</time>
      </trkpt>
      <trkpt lat="42.88987" lon="0.07867">
        <ele>1710.5999755859</ele>
        <time>2021-02-28T10:10:06.000Z</time>
      </trkpt>
      <trkpt lat="42.88985" lon="0.07873">
        <ele>1708.8000488281</ele>
        <time>2021-02-28T10:10:07.000Z</time>
      </trkpt>
      <trkpt lat="42.88986" lon="0.0788">
        <ele>1707.4000244141</ele>
        <time>2021-02-28T10:10:08.000Z</time>
      </trkpt>
      <trkpt lat="42.88986" lon="0.07886">
        <ele>1705.5999755859</ele>
        <time>2021-02-28T10:10:09.000Z</time>
      </trkpt>
      <trkpt lat="42.88985" lon="0.07891">
        <ele>1704</ele>
        <time>2021-02-28T10:10:10.000Z</time>
      </trkpt>
      <trkpt lat="42.88982" lon="0.07896">
        <ele>1702.8000488281</ele>
        <time>2021-02-28T10:10:11.000Z</time>
      </trkpt>
      <trkpt lat="42.8898" lon="0.07901">
        <ele>1701.8000488281</ele>
        <time>2021-02-28T10:10:12.000Z</time>
      </trkpt>
      <trkpt lat="42.88981" lon="0.07906">
        <ele>1701</ele>
        <time>2021-02-28T10:10:13.000Z</time>
      </trkpt>
      <trkpt lat="42.88984" lon="0.07911">
        <ele>1700.1999511719</ele>
        <time>2021-02-28T10:10:14.000Z</time>
      </trkpt>
      <trkpt lat="42.88986" lon="0.07916">
        <ele>1699.4000244141</ele>
        <time>2021-02-28T10:10:15.000Z</time>
      </trkpt>
      <trkpt lat="42.88988" lon="0.07929">
        <ele>1697.4000244141</ele>
        <time>2021-02-28T10:10:17.000Z</time>
      </trkpt>
      <trkpt lat="42.8899" lon="0.07932">
        <ele>1696</ele>
        <time>2021-02-28T10:10:18.000Z</time>
      </trkpt>
      <trkpt lat="42.88991" lon="0.07935">
        <ele>1694.5999755859</ele>
        <time>2021-02-28T10:10:19.000Z</time>
      </trkpt>
      <trkpt lat="42.88993" lon="0.0794">
        <ele>1693</ele>
        <time>2021-02-28T10:10:20.000Z</time>
      </trkpt>
      <trkpt lat="42.88995" lon="0.07943">
        <ele>1691.8000488281</ele>
        <time>2021-02-28T10:10:21.000Z</time>
      </trkpt>
      <trkpt lat="42.89001" lon="0.07945">
        <ele>1690</ele>
        <time>2021-02-28T10:10:23.000Z</time>
      </trkpt>
      <trkpt lat="42.89002" lon="0.07944">
        <ele>1689</ele>
        <time>2021-02-28T10:10:24.000Z</time>
      </trkpt>
      <trkpt lat="42.89002" lon="0.07943">
        <ele>1687.8000488281</ele>
        <time>2021-02-28T10:10:25.000Z</time>
      </trkpt>
      <trkpt lat="42.89002" lon="0.07943">
        <ele>1686.5999755859</ele>
        <time>2021-02-28T10:10:27.000Z</time>
      </trkpt>
      <trkpt lat="42.89009" lon="0.07949">
        <ele>1686.5999755859</ele>
        <time>2021-02-28T10:11:42.000Z</time>
      </trkpt>
      <trkpt lat="42.89011" lon="0.07957">
        <ele>1684</ele>
        <time>2021-02-28T10:11:44.000Z</time>
      </trkpt>
      <trkpt lat="42.89013" lon="0.07961">
        <ele>1680.8000488281</ele>
        <time>2021-02-28T10:11:45.000Z</time>
      </trkpt>
      <trkpt lat="42.89015" lon="0.07965">
        <ele>1678.5999755859</ele>
        <time>2021-02-28T10:11:46.000Z</time>
      </trkpt>
      <trkpt lat="42.89016" lon="0.07968">
        <ele>1676.1999511719</ele>
        <time>2021-02-28T10:11:47.000Z</time>
      </trkpt>
      <trkpt lat="42.89018" lon="0.07972">
        <ele>1674.5999755859</ele>
        <time>2021-02-28T10:11:48.000Z</time>
      </trkpt>
      <trkpt lat="42.89021" lon="0.07974">
        <ele>1672.1999511719</ele>
        <time>2021-02-28T10:11:49.000Z</time>
      </trkpt>
      <trkpt lat="42.89022" lon="0.07977">
        <ele>1673.1999511719</ele>
        <time>2021-02-28T10:11:50.000Z</time>
      </trkpt>
      <trkpt lat="42.89023" lon="0.07984">
        <ele>1671.5999755859</ele>
        <time>2021-02-28T10:11:52.000Z</time>
      </trkpt>
      <trkpt lat="42.89025" lon="0.07985">
        <ele>1669.8000488281</ele>
        <time>2021-02-28T10:11:53.000Z</time>
      </trkpt>
      <trkpt lat="42.89029" lon="0.07985">
        <ele>1668.1999511719</ele>
        <time>2021-02-28T10:11:54.000Z</time>
      </trkpt>
      <trkpt lat="42.89034" lon="0.07986">
        <ele>1666.8000488281</ele>
        <time>2021-02-28T10:11:55.000Z</time>
      </trkpt>
      <trkpt lat="42.89038" lon="0.07985">
        <ele>1665.5999755859</ele>
        <time>2021-02-28T10:11:56.000Z</time>
      </trkpt>
      <trkpt lat="42.89043" lon="0.07984">
        <ele>1663.8000488281</ele>
        <time>2021-02-28T10:11:58.000Z</time>
      </trkpt>
      <trkpt lat="42.89044" lon="0.07983">
        <ele>1662.5999755859</ele>
        <time>2021-02-28T10:12:00.000Z</time>
      </trkpt>
      <trkpt lat="42.89049" lon="0.07991">
        <ele>1661.5999755859</ele>
        <time>2021-02-28T10:12:05.000Z</time>
      </trkpt>
      <trkpt lat="42.89053" lon="0.07992">
        <ele>1660.8000488281</ele>
        <time>2021-02-28T10:12:06.000Z</time>
      </trkpt>
      <trkpt lat="42.89057" lon="0.07992">
        <ele>1659.8000488281</ele>
        <time>2021-02-28T10:12:07.000Z</time>
      </trkpt>
      <trkpt lat="42.89062" lon="0.0799">
        <ele>1658.5999755859</ele>
        <time>2021-02-28T10:12:08.000Z</time>
      </trkpt>
      <trkpt lat="42.89067" lon="0.07988">
        <ele>1657.4000244141</ele>
        <time>2021-02-28T10:12:09.000Z</time>
      </trkpt>
      <trkpt lat="42.89073" lon="0.07987">
        <ele>1656.4000244141</ele>
        <time>2021-02-28T10:12:10.000Z</time>
      </trkpt>
      <trkpt lat="42.89077" lon="0.07989">
        <ele>1655.1999511719</ele>
        <time>2021-02-28T10:12:11.000Z</time>
      </trkpt>
      <trkpt lat="42.89081" lon="0.0799">
        <ele>1653.5999755859</ele>
        <time>2021-02-28T10:12:12.000Z</time>
      </trkpt>
      <trkpt lat="42.89085" lon="0.07989">
        <ele>1651.8000488281</ele>
        <time>2021-02-28T10:12:13.000Z</time>
      </trkpt>
      <trkpt lat="42.89089" lon="0.07988">
        <ele>1650.1999511719</ele>
        <time>2021-02-28T10:12:14.000Z</time>
      </trkpt>
      <trkpt lat="42.89093" lon="0.07986">
        <ele>1648.8000488281</ele>
        <time>2021-02-28T10:12:15.000Z</time>
      </trkpt>
      <trkpt lat="42.89096" lon="0.07986">
        <ele>1647.1999511719</ele>
        <time>2021-02-28T10:12:16.000Z</time>
      </trkpt>
      <trkpt lat="42.891" lon="0.07985">
        <ele>1645.4000244141</ele>
        <time>2021-02-28T10:12:17.000Z</time>
      </trkpt>
      <trkpt lat="42.89106" lon="0.07982">
        <ele>1643.5999755859</ele>
        <time>2021-02-28T10:12:18.000Z</time>
      </trkpt>
      <trkpt lat="42.8911" lon="0.07982">
        <ele>1642</ele>
        <time>2021-02-28T10:12:19.000Z</time>
      </trkpt>
      <trkpt lat="42.89113" lon="0.07983">
        <ele>1640</ele>
        <time>2021-02-28T10:12:20.000Z</time>
      </trkpt>
      <trkpt lat="42.89116" lon="0.07982">
        <ele>1638.1999511719</ele>
        <time>2021-02-28T10:12:21.000Z</time>
      </trkpt>
      <trkpt lat="42.8912" lon="0.0798">
        <ele>1636.5999755859</ele>
        <time>2021-02-28T10:12:22.000Z</time>
      </trkpt>
      <trkpt lat="42.89122" lon="0.07975">
        <ele>1635.1999511719</ele>
        <time>2021-02-28T10:12:23.000Z</time>
      </trkpt>
      <trkpt lat="42.89123" lon="0.07971">
        <ele>1633.8000488281</ele>
        <time>2021-02-28T10:12:24.000Z</time>
      </trkpt>
      <trkpt lat="42.89126" lon="0.07968">
        <ele>1632.4000244141</ele>
        <time>2021-02-28T10:12:25.000Z</time>
      </trkpt>
      <trkpt lat="42.89129" lon="0.07963">
        <ele>1631.1999511719</ele>
        <time>2021-02-28T10:12:26.000Z</time>
      </trkpt>
      <trkpt lat="42.89133" lon="0.07958">
        <ele>1630.4000244141</ele>
        <time>2021-02-28T10:12:27.000Z</time>
      </trkpt>
      <trkpt lat="42.89136" lon="0.07959">
        <ele>1629.5999755859</ele>
        <time>2021-02-28T10:12:28.000Z</time>
      </trkpt>
      <trkpt lat="42.89139" lon="0.0796">
        <ele>1628.1999511719</ele>
        <time>2021-02-28T10:12:29.000Z</time>
      </trkpt>
      <trkpt lat="42.89144" lon="0.07959">
        <ele>1626.5999755859</ele>
        <time>2021-02-28T10:12:30.000Z</time>
      </trkpt>
      <trkpt lat="42.89149" lon="0.0796">
        <ele>1625</ele>
        <time>2021-02-28T10:12:31.000Z</time>
      </trkpt>
      <trkpt lat="42.89154" lon="0.07963">
        <ele>1623.4000244141</ele>
        <time>2021-02-28T10:12:32.000Z</time>
      </trkpt>
      <trkpt lat="42.8916" lon="0.07963">
        <ele>1621.4000244141</ele>
        <time>2021-02-28T10:12:33.000Z</time>
      </trkpt>
      <trkpt lat="42.89166" lon="0.07966">
        <ele>1619</ele>
        <time>2021-02-28T10:12:34.000Z</time>
      </trkpt>
      <trkpt lat="42.89171" lon="0.07969">
        <ele>1616.4000244141</ele>
        <time>2021-02-28T10:12:35.000Z</time>
      </trkpt>
      <trkpt lat="42.89177" lon="0.07972">
        <ele>1613.5999755859</ele>
        <time>2021-02-28T10:12:36.000Z</time>
      </trkpt>
      <trkpt lat="42.89184" lon="0.07974">
        <ele>1611.1999511719</ele>
        <time>2021-02-28T10:12:37.000Z</time>
      </trkpt>
      <trkpt lat="42.89188" lon="0.07977">
        <ele>1608.8000488281</ele>
        <time>2021-02-28T10:12:38.000Z</time>
      </trkpt>
      <trkpt lat="42.8919" lon="0.07982">
        <ele>1606.1999511719</ele>
        <time>2021-02-28T10:12:39.000Z</time>
      </trkpt>
      <trkpt lat="42.89193" lon="0.07986">
        <ele>1603.5999755859</ele>
        <time>2021-02-28T10:12:40.000Z</time>
      </trkpt>
      <trkpt lat="42.89196" lon="0.07989">
        <ele>1601.5999755859</ele>
        <time>2021-02-28T10:12:41.000Z</time>
      </trkpt>
      <trkpt lat="42.89198" lon="0.0799">
        <ele>1600.1999511719</ele>
        <time>2021-02-28T10:12:42.000Z</time>
      </trkpt>
      <trkpt lat="42.89199" lon="0.07989">
        <ele>1598.5999755859</ele>
        <time>2021-02-28T10:12:43.000Z</time>
      </trkpt>
      <trkpt lat="42.89199" lon="0.07989">
        <ele>1597.4000244141</ele>
        <time>2021-02-28T10:12:44.000Z</time>
      </trkpt>
      <trkpt lat="42.892" lon="0.07989">
        <ele>1596</ele>
        <time>2021-02-28T10:12:45.000Z</time>
      </trkpt>
      <trkpt lat="42.892" lon="0.07989">
        <ele>1594.1999511719</ele>
        <time>2021-02-28T10:12:47.000Z</time>
      </trkpt>
      <trkpt lat="42.89201" lon="0.07988">
        <ele>1593.1999511719</ele>
        <time>2021-02-28T10:12:53.000Z</time>
      </trkpt>
      <trkpt lat="42.89207" lon="0.0799">
        <ele>1592.4000244141</ele>
        <time>2021-02-28T10:13:51.000Z</time>
      </trkpt>
      <trkpt lat="42.89209" lon="0.07994">
        <ele>1591.5999755859</ele>
        <time>2021-02-28T10:13:52.000Z</time>
      </trkpt>
      <trkpt lat="42.8921" lon="0.07998">
        <ele>1590.5999755859</ele>
        <time>2021-02-28T10:13:53.000Z</time>
      </trkpt>
      <trkpt lat="42.89213" lon="0.08001">
        <ele>1589.4000244141</ele>
        <time>2021-02-28T10:13:54.000Z</time>
      </trkpt>
      <trkpt lat="42.89216" lon="0.08006">
        <ele>1587.1999511719</ele>
        <time>2021-02-28T10:13:56.000Z</time>
      </trkpt>
      <trkpt lat="42.89218" lon="0.08008">
        <ele>1586</ele>
        <time>2021-02-28T10:13:57.000Z</time>
      </trkpt>
      <trkpt lat="42.89219" lon="0.0801">
        <ele>1584.4000244141</ele>
        <time>2021-02-28T10:13:58.000Z</time>
      </trkpt>
      <trkpt lat="42.8922" lon="0.08011">
        <ele>1583.1999511719</ele>
        <time>2021-02-28T10:13:59.000Z</time>
      </trkpt>
      <trkpt lat="42.8922" lon="0.08011">
        <ele>1581.5999755859</ele>
        <time>2021-02-28T10:14:00.000Z</time>
      </trkpt>
      <trkpt lat="42.89221" lon="0.08011">
        <ele>1580.5999755859</ele>
        <time>2021-02-28T10:14:01.000Z</time>
      </trkpt>
      <trkpt lat="42.89221" lon="0.08012">
        <ele>1579.4000244141</ele>
        <time>2021-02-28T10:14:03.000Z</time>
      </trkpt>
      <trkpt lat="42.89231" lon="0.08019">
        <ele>1578.8000488281</ele>
        <time>2021-02-28T10:14:14.000Z</time>
      </trkpt>
      <trkpt lat="42.89233" lon="0.08025">
        <ele>1578.4000244141</ele>
        <time>2021-02-28T10:14:15.000Z</time>
      </trkpt>
      <trkpt lat="42.89239" lon="0.08029">
        <ele>1576.5999755859</ele>
        <time>2021-02-28T10:14:18.000Z</time>
      </trkpt>
      <trkpt lat="42.8924" lon="0.08032">
        <ele>1575.1999511719</ele>
        <time>2021-02-28T10:14:19.000Z</time>
      </trkpt>
      <trkpt lat="42.8924" lon="0.08036">
        <ele>1573.4000244141</ele>
        <time>2021-02-28T10:14:20.000Z</time>
      </trkpt>
      <trkpt lat="42.8924" lon="0.08039">
        <ele>1571.8000488281</ele>
        <time>2021-02-28T10:14:21.000Z</time>
      </trkpt>
      <trkpt lat="42.8924" lon="0.08041">
        <ele>1570.4000244141</ele>
        <time>2021-02-28T10:14:22.000Z</time>
      </trkpt>
      <trkpt lat="42.8924" lon="0.08042">
        <ele>1569.8000488281</ele>
        <time>2021-02-28T10:14:23.000Z</time>
      </trkpt>
      <trkpt lat="42.89241" lon="0.08043">
        <ele>1569.1999511719</ele>
        <time>2021-02-28T10:14:24.000Z</time>
      </trkpt>
      <trkpt lat="42.8925" lon="0.0804">
        <ele>1567.4000244141</ele>
        <time>2021-02-28T10:14:27.000Z</time>
      </trkpt>
      <trkpt lat="42.89253" lon="0.08037">
        <ele>1566.1999511719</ele>
        <time>2021-02-28T10:14:28.000Z</time>
      </trkpt>
      <trkpt lat="42.89257" lon="0.08036">
        <ele>1564.5999755859</ele>
        <time>2021-02-28T10:14:29.000Z</time>
      </trkpt>
      <trkpt lat="42.89259" lon="0.08036">
        <ele>1562.8000488281</ele>
        <time>2021-02-28T10:14:30.000Z</time>
      </trkpt>
      <trkpt lat="42.8926" lon="0.08035">
        <ele>1561.1999511719</ele>
        <time>2021-02-28T10:14:31.000Z</time>
      </trkpt>
      <trkpt lat="42.8926" lon="0.08035">
        <ele>1560</ele>
        <time>2021-02-28T10:14:32.000Z</time>
      </trkpt>
      <trkpt lat="42.8926" lon="0.08036">
        <ele>1559</ele>
        <time>2021-02-28T10:14:34.000Z</time>
      </trkpt>
      <trkpt lat="42.89271" lon="0.08053">
        <ele>1558.1999511719</ele>
        <time>2021-02-28T10:15:43.000Z</time>
      </trkpt>
      <trkpt lat="42.89277" lon="0.08052">
        <ele>1558.1999511719</ele>
        <time>2021-02-28T10:15:45.000Z</time>
      </trkpt>
      <trkpt lat="42.89281" lon="0.08047">
        <ele>1555.4000244141</ele>
        <time>2021-02-28T10:15:46.000Z</time>
      </trkpt>
      <trkpt lat="42.89285" lon="0.08045">
        <ele>1552.4000244141</ele>
        <time>2021-02-28T10:15:47.000Z</time>
      </trkpt>
      <trkpt lat="42.8929" lon="0.08037">
        <ele>1550.4000244141</ele>
        <time>2021-02-28T10:15:49.000Z</time>
      </trkpt>
      <trkpt lat="42.89293" lon="0.08029">
        <ele>1549</ele>
        <time>2021-02-28T10:15:51.000Z</time>
      </trkpt>
      <trkpt lat="42.893" lon="0.08015">
        <ele>1548.4000244141</ele>
        <time>2021-02-28T10:15:54.000Z</time>
      </trkpt>
      <trkpt lat="42.89302" lon="0.08017">
        <ele>1547.8000488281</ele>
        <time>2021-02-28T10:15:55.000Z</time>
      </trkpt>
      <trkpt lat="42.89306" lon="0.08024">
        <ele>1545.8000488281</ele>
        <time>2021-02-28T10:15:57.000Z</time>
      </trkpt>
      <trkpt lat="42.89312" lon="0.08035">
        <ele>1544.4000244141</ele>
        <time>2021-02-28T10:15:59.000Z</time>
      </trkpt>
      <trkpt lat="42.89324" lon="0.08045">
        <ele>1543.1999511719</ele>
        <time>2021-02-28T10:16:01.000Z</time>
      </trkpt>
      <trkpt lat="42.89326" lon="0.0805">
        <ele>1541.8000488281</ele>
        <time>2021-02-28T10:16:02.000Z</time>
      </trkpt>
      <trkpt lat="42.89329" lon="0.08054">
        <ele>1539.8000488281</ele>
        <time>2021-02-28T10:16:03.000Z</time>
      </trkpt>
      <trkpt lat="42.89332" lon="0.08057">
        <ele>1538.4000244141</ele>
        <time>2021-02-28T10:16:04.000Z</time>
      </trkpt>
      <trkpt lat="42.8934" lon="0.08061">
        <ele>1537</ele>
        <time>2021-02-28T10:16:06.000Z</time>
      </trkpt>
      <trkpt lat="42.89343" lon="0.08064">
        <ele>1536.4000244141</ele>
        <time>2021-02-28T10:16:07.000Z</time>
      </trkpt>
      <trkpt lat="42.89345" lon="0.08066">
        <ele>1535.5999755859</ele>
        <time>2021-02-28T10:16:08.000Z</time>
      </trkpt>
      <trkpt lat="42.89345" lon="0.08066">
        <ele>1534.5999755859</ele>
        <time>2021-02-28T10:16:09.000Z</time>
      </trkpt>
      <trkpt lat="42.89346" lon="0.08066">
        <ele>1533</ele>
        <time>2021-02-28T10:16:11.000Z</time>
      </trkpt>
      <trkpt lat="42.89349" lon="0.08077">
        <ele>1532.1999511719</ele>
        <time>2021-02-28T10:16:33.000Z</time>
      </trkpt>
      <trkpt lat="42.89351" lon="0.08079">
        <ele>1532</ele>
        <time>2021-02-28T10:16:34.000Z</time>
      </trkpt>
      <trkpt lat="42.89358" lon="0.08087">
        <ele>1530.1999511719</ele>
        <time>2021-02-28T10:16:37.000Z</time>
      </trkpt>
      <trkpt lat="42.8936" lon="0.08091">
        <ele>1528.4000244141</ele>
        <time>2021-02-28T10:16:39.000Z</time>
      </trkpt>
      <trkpt lat="42.89363" lon="0.08091">
        <ele>1527</ele>
        <time>2021-02-28T10:16:41.000Z</time>
      </trkpt>
      <trkpt lat="42.89363" lon="0.08091">
        <ele>1526.5999755859</ele>
        <time>2021-02-28T10:16:42.000Z</time>
      </trkpt>
      <trkpt lat="42.89364" lon="0.08091">
        <ele>1526</ele>
        <time>2021-02-28T10:16:45.000Z</time>
      </trkpt>
      <trkpt lat="42.89366" lon="0.08093">
        <ele>1525.4000244141</ele>
        <time>2021-02-28T10:16:52.000Z</time>
      </trkpt>
      <trkpt lat="42.89367" lon="0.08092">
        <ele>1525</ele>
        <time>2021-02-28T10:18:02.000Z</time>
      </trkpt>
    </trkseg>
  </trk>
</gpx>